<?xml version="1.0" encoding="UTF-8" standalone="no" ?>
<gpx xmlns="http://www.topografix.com/GPX/1/1" xmlns:xsi="http://www.w3.org/2001/XMLSchema-instance" xsi:schemaLocation="http://www.topografix.com/GPX/1/1 http://www.topografix.com/GPX/1/1/gpx.xsd" version="1.1" creator="VisuGPX - https://www.visugpx.com">
  <metadata>
    <name>2018-06-01 - Le Lardin-Saint-Lazare, Les Farges, Aubas</name>
    <desc><![CDATA[2018-06-01 - Le Lardin-Saint-Lazare, Les Farges, Aubas - Denis Vouin]]></desc>
  </metadata>
  <trk>
    <name><![CDATA[1 juin 2018]]></name>
    <cmt><![CDATA[6:32:58 AM]]></cmt>
    <desc><![CDATA[comment ...]]></desc>
    <trkseg>
      <trkpt lat="45.1274" lon="1.22588">
        <ele>98</ele>
        <time>2018-06-01T04:32:59Z</time>
      </trkpt>
      <trkpt lat="45.1274" lon="1.22587">
        <ele>98</ele>
        <time>2018-06-01T04:33:00Z</time>
      </trkpt>
      <trkpt lat="45.12735" lon="1.22583">
        <ele>97</ele>
        <time>2018-06-01T04:33:06Z</time>
      </trkpt>
      <trkpt lat="45.12691" lon="1.22569">
        <ele>94</ele>
        <time>2018-06-01T04:33:40Z</time>
      </trkpt>
      <trkpt lat="45.12645" lon="1.22557">
        <ele>93</ele>
        <time>2018-06-01T04:34:13Z</time>
      </trkpt>
      <trkpt lat="45.12641" lon="1.22551">
        <ele>94</ele>
        <time>2018-06-01T04:34:23Z</time>
      </trkpt>
      <trkpt lat="45.12642" lon="1.22535">
        <ele>92</ele>
        <time>2018-06-01T04:34:33Z</time>
      </trkpt>
      <trkpt lat="45.1264" lon="1.22548">
        <ele>90</ele>
        <time>2018-06-01T04:34:47Z</time>
      </trkpt>
      <trkpt lat="45.12635" lon="1.2255">
        <ele>90</ele>
        <time>2018-06-01T04:34:51Z</time>
      </trkpt>
      <trkpt lat="45.12626" lon="1.22548">
        <ele>92</ele>
        <time>2018-06-01T04:34:57Z</time>
      </trkpt>
      <trkpt lat="45.12609" lon="1.22544">
        <ele>92</ele>
        <time>2018-06-01T04:35:09Z</time>
      </trkpt>
      <trkpt lat="45.12601" lon="1.22548">
        <ele>94</ele>
        <time>2018-06-01T04:35:17Z</time>
      </trkpt>
      <trkpt lat="45.12588" lon="1.22546">
        <ele>97</ele>
        <time>2018-06-01T04:35:27Z</time>
      </trkpt>
      <trkpt lat="45.12567" lon="1.22531">
        <ele>99</ele>
        <time>2018-06-01T04:35:46Z</time>
      </trkpt>
      <trkpt lat="45.12528" lon="1.22532">
        <ele>98</ele>
        <time>2018-06-01T04:36:09Z</time>
      </trkpt>
      <trkpt lat="45.12508" lon="1.2253">
        <ele>97</ele>
        <time>2018-06-01T04:36:20Z</time>
      </trkpt>
      <trkpt lat="45.12467" lon="1.22525">
        <ele>94</ele>
        <time>2018-06-01T04:36:46Z</time>
      </trkpt>
      <trkpt lat="45.12465" lon="1.22519">
        <ele>93</ele>
        <time>2018-06-01T04:36:50Z</time>
      </trkpt>
      <trkpt lat="45.12461" lon="1.22515">
        <ele>94</ele>
        <time>2018-06-01T04:36:54Z</time>
      </trkpt>
      <trkpt lat="45.12434" lon="1.22433">
        <ele>88</ele>
        <time>2018-06-01T04:37:32Z</time>
      </trkpt>
      <trkpt lat="45.12443" lon="1.22429">
        <ele>93</ele>
        <time>2018-06-01T04:37:39Z</time>
      </trkpt>
      <trkpt lat="45.12448" lon="1.22419">
        <ele>91</ele>
        <time>2018-06-01T04:37:45Z</time>
      </trkpt>
      <trkpt lat="45.12457" lon="1.22398">
        <ele>91</ele>
        <time>2018-06-01T04:38:01Z</time>
      </trkpt>
      <trkpt lat="45.12477" lon="1.22351">
        <ele>108</ele>
        <time>2018-06-01T04:38:29Z</time>
      </trkpt>
      <trkpt lat="45.1249" lon="1.22317">
        <ele>98</ele>
        <time>2018-06-01T04:38:48Z</time>
      </trkpt>
      <trkpt lat="45.12494" lon="1.22305">
        <ele>98</ele>
        <time>2018-06-01T04:38:54Z</time>
      </trkpt>
      <trkpt lat="45.12499" lon="1.22294">
        <ele>97</ele>
        <time>2018-06-01T04:39:06Z</time>
      </trkpt>
      <trkpt lat="45.1252" lon="1.22233">
        <ele>96</ele>
        <time>2018-06-01T04:39:37Z</time>
      </trkpt>
      <trkpt lat="45.12523" lon="1.2222">
        <ele>96</ele>
        <time>2018-06-01T04:39:44Z</time>
      </trkpt>
      <trkpt lat="45.12531" lon="1.22196">
        <ele>93</ele>
        <time>2018-06-01T04:39:57Z</time>
      </trkpt>
      <trkpt lat="45.12534" lon="1.22177">
        <ele>141</ele>
        <time>2018-06-01T04:40:05Z</time>
      </trkpt>
      <trkpt lat="45.12537" lon="1.22171">
        <ele>124</ele>
        <time>2018-06-01T04:40:08Z</time>
      </trkpt>
      <trkpt lat="45.12553" lon="1.22105">
        <ele>101</ele>
        <time>2018-06-01T04:40:38Z</time>
      </trkpt>
      <trkpt lat="45.12561" lon="1.22075">
        <ele>101</ele>
        <time>2018-06-01T04:40:52Z</time>
      </trkpt>
      <trkpt lat="45.12565" lon="1.22062">
        <ele>100</ele>
        <time>2018-06-01T04:40:59Z</time>
      </trkpt>
      <trkpt lat="45.12574" lon="1.22032">
        <ele>97</ele>
        <time>2018-06-01T04:41:15Z</time>
      </trkpt>
      <trkpt lat="45.12577" lon="1.22025">
        <ele>98</ele>
        <time>2018-06-01T04:41:19Z</time>
      </trkpt>
      <trkpt lat="45.126" lon="1.21966">
        <ele>97</ele>
        <time>2018-06-01T04:41:51Z</time>
      </trkpt>
      <trkpt lat="45.12601" lon="1.21961">
        <ele>97</ele>
        <time>2018-06-01T04:41:56Z</time>
      </trkpt>
      <trkpt lat="45.12619" lon="1.21894">
        <ele>99</ele>
        <time>2018-06-01T04:42:30Z</time>
      </trkpt>
      <trkpt lat="45.12634" lon="1.21887">
        <ele>99</ele>
        <time>2018-06-01T04:42:36Z</time>
      </trkpt>
      <trkpt lat="45.12632" lon="1.21875">
        <ele>96</ele>
        <time>2018-06-01T04:42:42Z</time>
      </trkpt>
      <trkpt lat="45.12634" lon="1.21867">
        <ele>95</ele>
        <time>2018-06-01T04:42:46Z</time>
      </trkpt>
      <trkpt lat="45.12636" lon="1.21859">
        <ele>95</ele>
        <time>2018-06-01T04:42:49Z</time>
      </trkpt>
      <trkpt lat="45.12642" lon="1.21837">
        <ele>97</ele>
        <time>2018-06-01T04:43:01Z</time>
      </trkpt>
      <trkpt lat="45.12646" lon="1.21832">
        <ele>98</ele>
        <time>2018-06-01T04:43:04Z</time>
      </trkpt>
      <trkpt lat="45.1266" lon="1.21794">
        <ele>101</ele>
        <time>2018-06-01T04:43:24Z</time>
      </trkpt>
      <trkpt lat="45.12657" lon="1.21782">
        <ele>103</ele>
        <time>2018-06-01T04:43:32Z</time>
      </trkpt>
      <trkpt lat="45.12641" lon="1.21756">
        <ele>102</ele>
        <time>2018-06-01T04:43:52Z</time>
      </trkpt>
      <trkpt lat="45.12637" lon="1.21747">
        <ele>102</ele>
        <time>2018-06-01T04:43:58Z</time>
      </trkpt>
      <trkpt lat="45.12632" lon="1.21744">
        <ele>103</ele>
        <time>2018-06-01T04:44:02Z</time>
      </trkpt>
      <trkpt lat="45.12621" lon="1.21734">
        <ele>101</ele>
        <time>2018-06-01T04:44:15Z</time>
      </trkpt>
      <trkpt lat="45.12618" lon="1.21729">
        <ele>101</ele>
        <time>2018-06-01T04:44:19Z</time>
      </trkpt>
      <trkpt lat="45.12605" lon="1.21715">
        <ele>101</ele>
        <time>2018-06-01T04:44:33Z</time>
      </trkpt>
      <trkpt lat="45.12601" lon="1.21708">
        <ele>232</ele>
        <time>2018-06-01T04:44:38Z</time>
      </trkpt>
      <trkpt lat="45.12594" lon="1.2169">
        <ele>151</ele>
        <time>2018-06-01T04:44:50Z</time>
      </trkpt>
      <trkpt lat="45.12582" lon="1.21674">
        <ele>224</ele>
        <time>2018-06-01T04:45:02Z</time>
      </trkpt>
      <trkpt lat="45.12572" lon="1.21662">
        <ele>156</ele>
        <time>2018-06-01T04:45:12Z</time>
      </trkpt>
      <trkpt lat="45.12568" lon="1.2166">
        <ele>125</ele>
        <time>2018-06-01T04:45:16Z</time>
      </trkpt>
      <trkpt lat="45.1256" lon="1.21653">
        <ele>108</ele>
        <time>2018-06-01T04:45:25Z</time>
      </trkpt>
      <trkpt lat="45.12543" lon="1.21626">
        <ele>114</ele>
        <time>2018-06-01T04:45:51Z</time>
      </trkpt>
      <trkpt lat="45.12523" lon="1.21594">
        <ele>111</ele>
        <time>2018-06-01T04:46:19Z</time>
      </trkpt>
      <trkpt lat="45.12519" lon="1.2159">
        <ele>111</ele>
        <time>2018-06-01T04:46:24Z</time>
      </trkpt>
      <trkpt lat="45.12509" lon="1.21576">
        <ele>117</ele>
        <time>2018-06-01T04:46:41Z</time>
      </trkpt>
      <trkpt lat="45.12503" lon="1.21568">
        <ele>119</ele>
        <time>2018-06-01T04:46:50Z</time>
      </trkpt>
      <trkpt lat="45.12497" lon="1.21562">
        <ele>122</ele>
        <time>2018-06-01T04:46:57Z</time>
      </trkpt>
      <trkpt lat="45.12462" lon="1.21541">
        <ele>129</ele>
        <time>2018-06-01T04:47:34Z</time>
      </trkpt>
      <trkpt lat="45.1246" lon="1.21532">
        <ele>128</ele>
        <time>2018-06-01T04:47:47Z</time>
      </trkpt>
      <trkpt lat="45.12457" lon="1.21527">
        <ele>131</ele>
        <time>2018-06-01T04:47:55Z</time>
      </trkpt>
      <trkpt lat="45.12446" lon="1.21518">
        <ele>139</ele>
        <time>2018-06-01T04:48:11Z</time>
      </trkpt>
      <trkpt lat="45.12442" lon="1.21512">
        <ele>141</ele>
        <time>2018-06-01T04:48:17Z</time>
      </trkpt>
      <trkpt lat="45.12437" lon="1.21508">
        <ele>146</ele>
        <time>2018-06-01T04:48:26Z</time>
      </trkpt>
      <trkpt lat="45.12434" lon="1.21502">
        <ele>148</ele>
        <time>2018-06-01T04:48:32Z</time>
      </trkpt>
      <trkpt lat="45.12426" lon="1.21497">
        <ele>149</ele>
        <time>2018-06-01T04:48:39Z</time>
      </trkpt>
      <trkpt lat="45.12399" lon="1.21484">
        <ele>154</ele>
        <time>2018-06-01T04:49:13Z</time>
      </trkpt>
      <trkpt lat="45.1239" lon="1.21481">
        <ele>152</ele>
        <time>2018-06-01T04:49:22Z</time>
      </trkpt>
      <trkpt lat="45.12392" lon="1.21473">
        <ele>150</ele>
        <time>2018-06-01T04:49:33Z</time>
      </trkpt>
      <trkpt lat="45.12395" lon="1.21469">
        <ele>149</ele>
        <time>2018-06-01T04:49:38Z</time>
      </trkpt>
      <trkpt lat="45.12398" lon="1.21463">
        <ele>176</ele>
        <time>2018-06-01T04:50:39Z</time>
      </trkpt>
      <trkpt lat="45.12401" lon="1.21458">
        <ele>183</ele>
        <time>2018-06-01T04:50:45Z</time>
      </trkpt>
      <trkpt lat="45.12405" lon="1.21454">
        <ele>178</ele>
        <time>2018-06-01T04:50:49Z</time>
      </trkpt>
      <trkpt lat="45.12428" lon="1.21447">
        <ele>180</ele>
        <time>2018-06-01T04:51:16Z</time>
      </trkpt>
      <trkpt lat="45.12438" lon="1.21444">
        <ele>169</ele>
        <time>2018-06-01T04:51:27Z</time>
      </trkpt>
      <trkpt lat="45.12451" lon="1.21441">
        <ele>188</ele>
        <time>2018-06-01T04:51:40Z</time>
      </trkpt>
      <trkpt lat="45.12471" lon="1.21435">
        <ele>166</ele>
        <time>2018-06-01T04:51:58Z</time>
      </trkpt>
      <trkpt lat="45.12497" lon="1.21379">
        <ele>165</ele>
        <time>2018-06-01T04:52:33Z</time>
      </trkpt>
      <trkpt lat="45.12492" lon="1.21379">
        <ele>163</ele>
        <time>2018-06-01T04:52:45Z</time>
      </trkpt>
      <trkpt lat="45.12489" lon="1.21372">
        <ele>164</ele>
        <time>2018-06-01T04:52:50Z</time>
      </trkpt>
      <trkpt lat="45.12483" lon="1.2136">
        <ele>172</ele>
        <time>2018-06-01T04:53:04Z</time>
      </trkpt>
      <trkpt lat="45.12473" lon="1.21353">
        <ele>173</ele>
        <time>2018-06-01T04:53:15Z</time>
      </trkpt>
      <trkpt lat="45.12447" lon="1.21328">
        <ele>182</ele>
        <time>2018-06-01T04:53:46Z</time>
      </trkpt>
      <trkpt lat="45.12439" lon="1.21322">
        <ele>200</ele>
        <time>2018-06-01T04:53:56Z</time>
      </trkpt>
      <trkpt lat="45.12432" lon="1.21316">
        <ele>200</ele>
        <time>2018-06-01T04:54:05Z</time>
      </trkpt>
      <trkpt lat="45.12428" lon="1.21312">
        <ele>200</ele>
        <time>2018-06-01T04:54:10Z</time>
      </trkpt>
      <trkpt lat="45.12426" lon="1.21306">
        <ele>195</ele>
        <time>2018-06-01T04:54:17Z</time>
      </trkpt>
      <trkpt lat="45.12405" lon="1.21291">
        <ele>190</ele>
        <time>2018-06-01T04:54:41Z</time>
      </trkpt>
      <trkpt lat="45.124" lon="1.21292">
        <ele>189</ele>
        <time>2018-06-01T04:54:45Z</time>
      </trkpt>
      <trkpt lat="45.12398" lon="1.21287">
        <ele>228</ele>
        <time>2018-06-01T04:54:50Z</time>
      </trkpt>
      <trkpt lat="45.1239" lon="1.2128">
        <ele>209</ele>
        <time>2018-06-01T04:55:00Z</time>
      </trkpt>
      <trkpt lat="45.12383" lon="1.21273">
        <ele>190</ele>
        <time>2018-06-01T04:55:11Z</time>
      </trkpt>
      <trkpt lat="45.12381" lon="1.21267">
        <ele>191</ele>
        <time>2018-06-01T04:56:09Z</time>
      </trkpt>
      <trkpt lat="45.12374" lon="1.21256">
        <ele>210</ele>
        <time>2018-06-01T04:56:20Z</time>
      </trkpt>
      <trkpt lat="45.1235" lon="1.21236">
        <ele>202</ele>
        <time>2018-06-01T04:56:52Z</time>
      </trkpt>
      <trkpt lat="45.12348" lon="1.2123">
        <ele>199</ele>
        <time>2018-06-01T04:56:58Z</time>
      </trkpt>
      <trkpt lat="45.12327" lon="1.21196">
        <ele>194</ele>
        <time>2018-06-01T04:57:33Z</time>
      </trkpt>
      <trkpt lat="45.12326" lon="1.21186">
        <ele>178</ele>
        <time>2018-06-01T04:57:38Z</time>
      </trkpt>
      <trkpt lat="45.12323" lon="1.21178">
        <ele>176</ele>
        <time>2018-06-01T04:57:44Z</time>
      </trkpt>
      <trkpt lat="45.12316" lon="1.21169">
        <ele>190</ele>
        <time>2018-06-01T04:57:52Z</time>
      </trkpt>
      <trkpt lat="45.12295" lon="1.21134">
        <ele>211</ele>
        <time>2018-06-01T04:58:26Z</time>
      </trkpt>
      <trkpt lat="45.12276" lon="1.21112">
        <ele>212</ele>
        <time>2018-06-01T04:58:50Z</time>
      </trkpt>
      <trkpt lat="45.12273" lon="1.2111">
        <ele>214</ele>
        <time>2018-06-01T04:58:54Z</time>
      </trkpt>
      <trkpt lat="45.12269" lon="1.21105">
        <ele>215</ele>
        <time>2018-06-01T04:58:58Z</time>
      </trkpt>
      <trkpt lat="45.12261" lon="1.21098">
        <ele>217</ele>
        <time>2018-06-01T04:59:08Z</time>
      </trkpt>
      <trkpt lat="45.12254" lon="1.21086">
        <ele>216</ele>
        <time>2018-06-01T04:59:16Z</time>
      </trkpt>
      <trkpt lat="45.12235" lon="1.21067">
        <ele>216</ele>
        <time>2018-06-01T04:59:36Z</time>
      </trkpt>
      <trkpt lat="45.12215" lon="1.21052">
        <ele>214</ele>
        <time>2018-06-01T04:59:54Z</time>
      </trkpt>
      <trkpt lat="45.12202" lon="1.21028">
        <ele>212</ele>
        <time>2018-06-01T05:00:08Z</time>
      </trkpt>
      <trkpt lat="45.12198" lon="1.21022">
        <ele>212</ele>
        <time>2018-06-01T05:00:12Z</time>
      </trkpt>
      <trkpt lat="45.12194" lon="1.21017">
        <ele>211</ele>
        <time>2018-06-01T05:00:16Z</time>
      </trkpt>
      <trkpt lat="45.12165" lon="1.20985">
        <ele>210</ele>
        <time>2018-06-01T05:00:44Z</time>
      </trkpt>
      <trkpt lat="45.12156" lon="1.20972">
        <ele>210</ele>
        <time>2018-06-01T05:00:54Z</time>
      </trkpt>
      <trkpt lat="45.1215" lon="1.20961">
        <ele>225</ele>
        <time>2018-06-01T05:01:02Z</time>
      </trkpt>
      <trkpt lat="45.12121" lon="1.20909">
        <ele>210</ele>
        <time>2018-06-01T05:01:35Z</time>
      </trkpt>
      <trkpt lat="45.12097" lon="1.20885">
        <ele>209</ele>
        <time>2018-06-01T05:01:59Z</time>
      </trkpt>
      <trkpt lat="45.12055" lon="1.20857">
        <ele>203</ele>
        <time>2018-06-01T05:02:33Z</time>
      </trkpt>
      <trkpt lat="45.1205" lon="1.20859">
        <ele>207</ele>
        <time>2018-06-01T05:02:36Z</time>
      </trkpt>
      <trkpt lat="45.12041" lon="1.20855">
        <ele>207</ele>
        <time>2018-06-01T05:02:44Z</time>
      </trkpt>
      <trkpt lat="45.12038" lon="1.20851">
        <ele>207</ele>
        <time>2018-06-01T05:02:49Z</time>
      </trkpt>
      <trkpt lat="45.12042" lon="1.20846">
        <ele>216</ele>
        <time>2018-06-01T05:03:40Z</time>
      </trkpt>
      <trkpt lat="45.12045" lon="1.2084">
        <ele>212</ele>
        <time>2018-06-01T05:03:43Z</time>
      </trkpt>
      <trkpt lat="45.12049" lon="1.20837">
        <ele>211</ele>
        <time>2018-06-01T05:03:46Z</time>
      </trkpt>
      <trkpt lat="45.1206" lon="1.20821">
        <ele>207</ele>
        <time>2018-06-01T05:03:58Z</time>
      </trkpt>
      <trkpt lat="45.12073" lon="1.2079">
        <ele>205</ele>
        <time>2018-06-01T05:04:17Z</time>
      </trkpt>
      <trkpt lat="45.12099" lon="1.20746">
        <ele>204</ele>
        <time>2018-06-01T05:04:47Z</time>
      </trkpt>
      <trkpt lat="45.12104" lon="1.20737">
        <ele>204</ele>
        <time>2018-06-01T05:04:53Z</time>
      </trkpt>
      <trkpt lat="45.12108" lon="1.20736">
        <ele>203</ele>
        <time>2018-06-01T05:05:09Z</time>
      </trkpt>
      <trkpt lat="45.12119" lon="1.20712">
        <ele>203</ele>
        <time>2018-06-01T05:05:23Z</time>
      </trkpt>
      <trkpt lat="45.1214" lon="1.20689">
        <ele>206</ele>
        <time>2018-06-01T05:05:42Z</time>
      </trkpt>
      <trkpt lat="45.12171" lon="1.20667">
        <ele>206</ele>
        <time>2018-06-01T05:06:06Z</time>
      </trkpt>
      <trkpt lat="45.12189" lon="1.20653">
        <ele>205</ele>
        <time>2018-06-01T05:06:22Z</time>
      </trkpt>
      <trkpt lat="45.12198" lon="1.20649">
        <ele>219</ele>
        <time>2018-06-01T05:06:29Z</time>
      </trkpt>
      <trkpt lat="45.12212" lon="1.20641">
        <ele>210</ele>
        <time>2018-06-01T05:06:39Z</time>
      </trkpt>
      <trkpt lat="45.12216" lon="1.20636">
        <ele>209</ele>
        <time>2018-06-01T05:06:43Z</time>
      </trkpt>
      <trkpt lat="45.12218" lon="1.20631">
        <ele>208</ele>
        <time>2018-06-01T05:06:46Z</time>
      </trkpt>
      <trkpt lat="45.1222" lon="1.20618">
        <ele>206</ele>
        <time>2018-06-01T05:06:52Z</time>
      </trkpt>
      <trkpt lat="45.12221" lon="1.20602">
        <ele>205</ele>
        <time>2018-06-01T05:06:59Z</time>
      </trkpt>
      <trkpt lat="45.12228" lon="1.20547">
        <ele>201</ele>
        <time>2018-06-01T05:07:34Z</time>
      </trkpt>
      <trkpt lat="45.12221" lon="1.20521">
        <ele>201</ele>
        <time>2018-06-01T05:07:37Z</time>
      </trkpt>
      <trkpt lat="45.12225" lon="1.20514">
        <ele>203</ele>
        <time>2018-06-01T05:07:44Z</time>
      </trkpt>
      <trkpt lat="45.12225" lon="1.20505">
        <ele>203</ele>
        <time>2018-06-01T05:07:47Z</time>
      </trkpt>
      <trkpt lat="45.12225" lon="1.20497">
        <ele>204</ele>
        <time>2018-06-01T05:07:51Z</time>
      </trkpt>
      <trkpt lat="45.1223" lon="1.20471">
        <ele>203</ele>
        <time>2018-06-01T05:08:04Z</time>
      </trkpt>
      <trkpt lat="45.12235" lon="1.20421">
        <ele>197</ele>
        <time>2018-06-01T05:08:31Z</time>
      </trkpt>
      <trkpt lat="45.12237" lon="1.20416">
        <ele>197</ele>
        <time>2018-06-01T05:08:34Z</time>
      </trkpt>
      <trkpt lat="45.12239" lon="1.2041">
        <ele>211</ele>
        <time>2018-06-01T05:08:37Z</time>
      </trkpt>
      <trkpt lat="45.12244" lon="1.20407">
        <ele>216</ele>
        <time>2018-06-01T05:08:41Z</time>
      </trkpt>
      <trkpt lat="45.1227" lon="1.20401">
        <ele>202</ele>
        <time>2018-06-01T05:09:02Z</time>
      </trkpt>
      <trkpt lat="45.12275" lon="1.20402">
        <ele>200</ele>
        <time>2018-06-01T05:09:06Z</time>
      </trkpt>
      <trkpt lat="45.12279" lon="1.204">
        <ele>206</ele>
        <time>2018-06-01T05:09:10Z</time>
      </trkpt>
      <trkpt lat="45.12284" lon="1.20399">
        <ele>203</ele>
        <time>2018-06-01T05:09:13Z</time>
      </trkpt>
      <trkpt lat="45.12289" lon="1.20397">
        <ele>197</ele>
        <time>2018-06-01T05:09:19Z</time>
      </trkpt>
      <trkpt lat="45.12294" lon="1.20394">
        <ele>194</ele>
        <time>2018-06-01T05:09:22Z</time>
      </trkpt>
      <trkpt lat="45.12299" lon="1.20392">
        <ele>192</ele>
        <time>2018-06-01T05:09:25Z</time>
      </trkpt>
      <trkpt lat="45.12306" lon="1.20381">
        <ele>190</ele>
        <time>2018-06-01T05:09:33Z</time>
      </trkpt>
      <trkpt lat="45.12338" lon="1.20347">
        <ele>190</ele>
        <time>2018-06-01T05:10:03Z</time>
      </trkpt>
      <trkpt lat="45.12346" lon="1.20337">
        <ele>191</ele>
        <time>2018-06-01T05:10:12Z</time>
      </trkpt>
      <trkpt lat="45.12365" lon="1.2029">
        <ele>188</ele>
        <time>2018-06-01T05:10:40Z</time>
      </trkpt>
      <trkpt lat="45.12382" lon="1.20263">
        <ele>187</ele>
        <time>2018-06-01T05:11:01Z</time>
      </trkpt>
      <trkpt lat="45.12389" lon="1.20254">
        <ele>207</ele>
        <time>2018-06-01T05:11:08Z</time>
      </trkpt>
      <trkpt lat="45.12395" lon="1.20244">
        <ele>199</ele>
        <time>2018-06-01T05:11:17Z</time>
      </trkpt>
      <trkpt lat="45.12418" lon="1.2022">
        <ele>190</ele>
        <time>2018-06-01T05:11:37Z</time>
      </trkpt>
      <trkpt lat="45.12427" lon="1.20214">
        <ele>221</ele>
        <time>2018-06-01T05:11:43Z</time>
      </trkpt>
      <trkpt lat="45.12436" lon="1.2021">
        <ele>206</ele>
        <time>2018-06-01T05:11:51Z</time>
      </trkpt>
      <trkpt lat="45.12441" lon="1.20206">
        <ele>203</ele>
        <time>2018-06-01T05:11:55Z</time>
      </trkpt>
      <trkpt lat="45.12444" lon="1.20201">
        <ele>200</ele>
        <time>2018-06-01T05:11:58Z</time>
      </trkpt>
      <trkpt lat="45.12486" lon="1.20155">
        <ele>198</ele>
        <time>2018-06-01T05:12:35Z</time>
      </trkpt>
      <trkpt lat="45.12493" lon="1.20144">
        <ele>189</ele>
        <time>2018-06-01T05:12:42Z</time>
      </trkpt>
      <trkpt lat="45.12498" lon="1.20134">
        <ele>188</ele>
        <time>2018-06-01T05:12:49Z</time>
      </trkpt>
      <trkpt lat="45.12499" lon="1.20125">
        <ele>187</ele>
        <time>2018-06-01T05:12:54Z</time>
      </trkpt>
      <trkpt lat="45.12502" lon="1.2012">
        <ele>187</ele>
        <time>2018-06-01T05:12:59Z</time>
      </trkpt>
      <trkpt lat="45.12502" lon="1.20114">
        <ele>186</ele>
        <time>2018-06-01T05:13:01Z</time>
      </trkpt>
      <trkpt lat="45.12508" lon="1.20074">
        <ele>186</ele>
        <time>2018-06-01T05:13:22Z</time>
      </trkpt>
      <trkpt lat="45.12511" lon="1.20067">
        <ele>184</ele>
        <time>2018-06-01T05:13:26Z</time>
      </trkpt>
      <trkpt lat="45.12512" lon="1.2006">
        <ele>184</ele>
        <time>2018-06-01T05:13:30Z</time>
      </trkpt>
      <trkpt lat="45.12533" lon="1.20039">
        <ele>181</ele>
        <time>2018-06-01T05:13:50Z</time>
      </trkpt>
      <trkpt lat="45.12548" lon="1.20033">
        <ele>182</ele>
        <time>2018-06-01T05:14:02Z</time>
      </trkpt>
      <trkpt lat="45.12557" lon="1.20033">
        <ele>195</ele>
        <time>2018-06-01T05:14:09Z</time>
      </trkpt>
      <trkpt lat="45.12567" lon="1.20032">
        <ele>186</ele>
        <time>2018-06-01T05:14:17Z</time>
      </trkpt>
      <trkpt lat="45.12571" lon="1.20032">
        <ele>198</ele>
        <time>2018-06-01T05:14:20Z</time>
      </trkpt>
      <trkpt lat="45.12615" lon="1.20028">
        <ele>177</ele>
        <time>2018-06-01T05:14:53Z</time>
      </trkpt>
      <trkpt lat="45.12643" lon="1.20019">
        <ele>202</ele>
        <time>2018-06-01T05:15:21Z</time>
      </trkpt>
      <trkpt lat="45.12653" lon="1.20015">
        <ele>190</ele>
        <time>2018-06-01T05:15:28Z</time>
      </trkpt>
      <trkpt lat="45.12648" lon="1.20015">
        <ele>192</ele>
        <time>2018-06-01T05:16:46Z</time>
      </trkpt>
      <trkpt lat="45.12644" lon="1.20016">
        <ele>192</ele>
        <time>2018-06-01T05:16:50Z</time>
      </trkpt>
      <trkpt lat="45.12639" lon="1.20017">
        <ele>191</ele>
        <time>2018-06-01T05:16:55Z</time>
      </trkpt>
      <trkpt lat="45.12635" lon="1.2002">
        <ele>185</ele>
        <time>2018-06-01T05:17:00Z</time>
      </trkpt>
      <trkpt lat="45.12593" lon="1.20028">
        <ele>310</ele>
        <time>2018-06-01T05:17:34Z</time>
      </trkpt>
      <trkpt lat="45.12588" lon="1.20021">
        <ele>274</ele>
        <time>2018-06-01T05:17:38Z</time>
      </trkpt>
      <trkpt lat="45.12583" lon="1.20024">
        <ele>210</ele>
        <time>2018-06-01T05:17:42Z</time>
      </trkpt>
      <trkpt lat="45.12578" lon="1.20025">
        <ele>231</ele>
        <time>2018-06-01T05:17:46Z</time>
      </trkpt>
      <trkpt lat="45.12559" lon="1.20029">
        <ele>193</ele>
        <time>2018-06-01T05:18:01Z</time>
      </trkpt>
      <trkpt lat="45.12555" lon="1.2003">
        <ele>189</ele>
        <time>2018-06-01T05:18:04Z</time>
      </trkpt>
      <trkpt lat="45.12537" lon="1.20037">
        <ele>185</ele>
        <time>2018-06-01T05:18:20Z</time>
      </trkpt>
      <trkpt lat="45.1253" lon="1.20047">
        <ele>182</ele>
        <time>2018-06-01T05:18:27Z</time>
      </trkpt>
      <trkpt lat="45.12525" lon="1.20049">
        <ele>181</ele>
        <time>2018-06-01T05:18:33Z</time>
      </trkpt>
      <trkpt lat="45.12521" lon="1.20053">
        <ele>198</ele>
        <time>2018-06-01T05:18:39Z</time>
      </trkpt>
      <trkpt lat="45.12513" lon="1.20069">
        <ele>183</ele>
        <time>2018-06-01T05:18:54Z</time>
      </trkpt>
      <trkpt lat="45.12515" lon="1.20063">
        <ele>181</ele>
        <time>2018-06-01T05:18:58Z</time>
      </trkpt>
      <trkpt lat="45.12541" lon="1.20036">
        <ele>178</ele>
        <time>2018-06-01T05:19:30Z</time>
      </trkpt>
      <trkpt lat="45.12545" lon="1.20031">
        <ele>177</ele>
        <time>2018-06-01T05:19:34Z</time>
      </trkpt>
      <trkpt lat="45.12546" lon="1.20023">
        <ele>176</ele>
        <time>2018-06-01T05:19:38Z</time>
      </trkpt>
      <trkpt lat="45.12561" lon="1.19971">
        <ele>174</ele>
        <time>2018-06-01T05:20:10Z</time>
      </trkpt>
      <trkpt lat="45.12562" lon="1.19963">
        <ele>175</ele>
        <time>2018-06-01T05:20:16Z</time>
      </trkpt>
      <trkpt lat="45.12563" lon="1.19951">
        <ele>174</ele>
        <time>2018-06-01T05:20:23Z</time>
      </trkpt>
      <trkpt lat="45.12561" lon="1.19939">
        <ele>201</ele>
        <time>2018-06-01T05:20:33Z</time>
      </trkpt>
      <trkpt lat="45.12559" lon="1.1993">
        <ele>211</ele>
        <time>2018-06-01T05:20:38Z</time>
      </trkpt>
      <trkpt lat="45.12551" lon="1.19914">
        <ele>190</ele>
        <time>2018-06-01T05:20:48Z</time>
      </trkpt>
      <trkpt lat="45.12555" lon="1.1989">
        <ele>178</ele>
        <time>2018-06-01T05:21:01Z</time>
      </trkpt>
      <trkpt lat="45.12554" lon="1.19881">
        <ele>176</ele>
        <time>2018-06-01T05:21:04Z</time>
      </trkpt>
      <trkpt lat="45.12554" lon="1.19869">
        <ele>193</ele>
        <time>2018-06-01T05:21:10Z</time>
      </trkpt>
      <trkpt lat="45.12557" lon="1.19861">
        <ele>195</ele>
        <time>2018-06-01T05:21:19Z</time>
      </trkpt>
      <trkpt lat="45.12563" lon="1.19848">
        <ele>174</ele>
        <time>2018-06-01T05:21:28Z</time>
      </trkpt>
      <trkpt lat="45.12565" lon="1.19837">
        <ele>171</ele>
        <time>2018-06-01T05:21:38Z</time>
      </trkpt>
      <trkpt lat="45.12567" lon="1.19827">
        <ele>193</ele>
        <time>2018-06-01T05:21:43Z</time>
      </trkpt>
      <trkpt lat="45.12567" lon="1.19819">
        <ele>191</ele>
        <time>2018-06-01T05:21:48Z</time>
      </trkpt>
      <trkpt lat="45.12566" lon="1.19805">
        <ele>172</ele>
        <time>2018-06-01T05:21:56Z</time>
      </trkpt>
      <trkpt lat="45.12565" lon="1.19798">
        <ele>169</ele>
        <time>2018-06-01T05:22:00Z</time>
      </trkpt>
      <trkpt lat="45.12576" lon="1.19741">
        <ele>175</ele>
        <time>2018-06-01T05:22:36Z</time>
      </trkpt>
      <trkpt lat="45.12571" lon="1.19703">
        <ele>154</ele>
        <time>2018-06-01T05:22:59Z</time>
      </trkpt>
      <trkpt lat="45.12566" lon="1.1969">
        <ele>152</ele>
        <time>2018-06-01T05:23:07Z</time>
      </trkpt>
      <trkpt lat="45.12559" lon="1.19681">
        <ele>151</ele>
        <time>2018-06-01T05:23:16Z</time>
      </trkpt>
      <trkpt lat="45.12555" lon="1.19679">
        <ele>149</ele>
        <time>2018-06-01T05:23:20Z</time>
      </trkpt>
      <trkpt lat="45.12532" lon="1.19673">
        <ele>147</ele>
        <time>2018-06-01T05:23:42Z</time>
      </trkpt>
      <trkpt lat="45.12497" lon="1.19689">
        <ele>143</ele>
        <time>2018-06-01T05:24:11Z</time>
      </trkpt>
      <trkpt lat="45.12476" lon="1.19704">
        <ele>140</ele>
        <time>2018-06-01T05:24:28Z</time>
      </trkpt>
      <trkpt lat="45.12473" lon="1.19699">
        <ele>140</ele>
        <time>2018-06-01T05:24:37Z</time>
      </trkpt>
      <trkpt lat="45.12474" lon="1.19693">
        <ele>140</ele>
        <time>2018-06-01T05:24:41Z</time>
      </trkpt>
      <trkpt lat="45.12477" lon="1.19661">
        <ele>138</ele>
        <time>2018-06-01T05:24:57Z</time>
      </trkpt>
      <trkpt lat="45.12485" lon="1.19658">
        <ele>158</ele>
        <time>2018-06-01T05:25:11Z</time>
      </trkpt>
      <trkpt lat="45.12488" lon="1.19652">
        <ele>171</ele>
        <time>2018-06-01T05:25:15Z</time>
      </trkpt>
      <trkpt lat="45.12504" lon="1.19626">
        <ele>137</ele>
        <time>2018-06-01T05:25:33Z</time>
      </trkpt>
      <trkpt lat="45.12513" lon="1.19619">
        <ele>134</ele>
        <time>2018-06-01T05:25:41Z</time>
      </trkpt>
      <trkpt lat="45.12517" lon="1.19614">
        <ele>133</ele>
        <time>2018-06-01T05:25:46Z</time>
      </trkpt>
      <trkpt lat="45.12516" lon="1.19608">
        <ele>133</ele>
        <time>2018-06-01T05:25:53Z</time>
      </trkpt>
      <trkpt lat="45.12507" lon="1.19604">
        <ele>133</ele>
        <time>2018-06-01T05:25:59Z</time>
      </trkpt>
      <trkpt lat="45.12503" lon="1.19603">
        <ele>133</ele>
        <time>2018-06-01T05:26:02Z</time>
      </trkpt>
      <trkpt lat="45.12488" lon="1.19586">
        <ele>129</ele>
        <time>2018-06-01T05:26:18Z</time>
      </trkpt>
      <trkpt lat="45.12485" lon="1.1958">
        <ele>130</ele>
        <time>2018-06-01T05:26:22Z</time>
      </trkpt>
      <trkpt lat="45.12484" lon="1.19574">
        <ele>129</ele>
        <time>2018-06-01T05:26:25Z</time>
      </trkpt>
      <trkpt lat="45.12488" lon="1.19553">
        <ele>128</ele>
        <time>2018-06-01T05:26:37Z</time>
      </trkpt>
      <trkpt lat="45.12488" lon="1.19546">
        <ele>128</ele>
        <time>2018-06-01T05:26:40Z</time>
      </trkpt>
      <trkpt lat="45.12487" lon="1.19539">
        <ele>127</ele>
        <time>2018-06-01T05:26:44Z</time>
      </trkpt>
      <trkpt lat="45.12486" lon="1.19524">
        <ele>127</ele>
        <time>2018-06-01T05:26:49Z</time>
      </trkpt>
      <trkpt lat="45.12481" lon="1.19525">
        <ele>127</ele>
        <time>2018-06-01T05:26:53Z</time>
      </trkpt>
      <trkpt lat="45.12478" lon="1.1952">
        <ele>150</ele>
        <time>2018-06-01T05:26:57Z</time>
      </trkpt>
      <trkpt lat="45.12473" lon="1.19517">
        <ele>149</ele>
        <time>2018-06-01T05:27:01Z</time>
      </trkpt>
      <trkpt lat="45.12469" lon="1.19513">
        <ele>144</ele>
        <time>2018-06-01T05:27:04Z</time>
      </trkpt>
      <trkpt lat="45.12447" lon="1.19487">
        <ele>128</ele>
        <time>2018-06-01T05:27:25Z</time>
      </trkpt>
      <trkpt lat="45.12444" lon="1.1948">
        <ele>128</ele>
        <time>2018-06-01T05:27:29Z</time>
      </trkpt>
      <trkpt lat="45.12417" lon="1.19404">
        <ele>269</ele>
        <time>2018-06-01T05:28:13Z</time>
      </trkpt>
      <trkpt lat="45.12412" lon="1.19399">
        <ele>248</ele>
        <time>2018-06-01T05:28:25Z</time>
      </trkpt>
      <trkpt lat="45.12411" lon="1.19392">
        <ele>170</ele>
        <time>2018-06-01T05:28:41Z</time>
      </trkpt>
      <trkpt lat="45.12408" lon="1.19387">
        <ele>135</ele>
        <time>2018-06-01T05:28:44Z</time>
      </trkpt>
      <trkpt lat="45.12406" lon="1.19382">
        <ele>131</ele>
        <time>2018-06-01T05:28:47Z</time>
      </trkpt>
      <trkpt lat="45.12403" lon="1.19375">
        <ele>125</ele>
        <time>2018-06-01T05:28:51Z</time>
      </trkpt>
      <trkpt lat="45.12399" lon="1.19356">
        <ele>128</ele>
        <time>2018-06-01T05:29:00Z</time>
      </trkpt>
      <trkpt lat="45.12404" lon="1.19369">
        <ele>127</ele>
        <time>2018-06-01T05:29:48Z</time>
      </trkpt>
      <trkpt lat="45.12412" lon="1.19387">
        <ele>126</ele>
        <time>2018-06-01T05:29:59Z</time>
      </trkpt>
      <trkpt lat="45.12412" lon="1.19394">
        <ele>126</ele>
        <time>2018-06-01T05:30:03Z</time>
      </trkpt>
      <trkpt lat="45.12415" lon="1.19399">
        <ele>125</ele>
        <time>2018-06-01T05:30:06Z</time>
      </trkpt>
      <trkpt lat="45.12425" lon="1.19438">
        <ele>125</ele>
        <time>2018-06-01T05:30:27Z</time>
      </trkpt>
      <trkpt lat="45.12432" lon="1.19448">
        <ele>123</ele>
        <time>2018-06-01T05:30:34Z</time>
      </trkpt>
      <trkpt lat="45.12429" lon="1.19456">
        <ele>119</ele>
        <time>2018-06-01T05:30:51Z</time>
      </trkpt>
      <trkpt lat="45.12419" lon="1.19457">
        <ele>119</ele>
        <time>2018-06-01T05:31:01Z</time>
      </trkpt>
      <trkpt lat="45.12407" lon="1.1945">
        <ele>121</ele>
        <time>2018-06-01T05:31:08Z</time>
      </trkpt>
      <trkpt lat="45.12402" lon="1.19444">
        <ele>125</ele>
        <time>2018-06-01T05:31:12Z</time>
      </trkpt>
      <trkpt lat="45.12396" lon="1.19434">
        <ele>124</ele>
        <time>2018-06-01T05:31:20Z</time>
      </trkpt>
      <trkpt lat="45.12369" lon="1.19425">
        <ele>123</ele>
        <time>2018-06-01T05:31:38Z</time>
      </trkpt>
      <trkpt lat="45.12358" lon="1.19416">
        <ele>176</ele>
        <time>2018-06-01T05:31:48Z</time>
      </trkpt>
      <trkpt lat="45.12319" lon="1.19401">
        <ele>142</ele>
        <time>2018-06-01T05:32:18Z</time>
      </trkpt>
      <trkpt lat="45.12303" lon="1.19405">
        <ele>140</ele>
        <time>2018-06-01T05:32:29Z</time>
      </trkpt>
      <trkpt lat="45.12289" lon="1.19405">
        <ele>136</ele>
        <time>2018-06-01T05:32:39Z</time>
      </trkpt>
      <trkpt lat="45.12277" lon="1.19403">
        <ele>132</ele>
        <time>2018-06-01T05:32:50Z</time>
      </trkpt>
      <trkpt lat="45.12236" lon="1.19387">
        <ele>126</ele>
        <time>2018-06-01T05:33:25Z</time>
      </trkpt>
      <trkpt lat="45.12221" lon="1.19385">
        <ele>128</ele>
        <time>2018-06-01T05:33:36Z</time>
      </trkpt>
      <trkpt lat="45.12208" lon="1.19386">
        <ele>133</ele>
        <time>2018-06-01T05:33:45Z</time>
      </trkpt>
      <trkpt lat="45.12196" lon="1.19381">
        <ele>134</ele>
        <time>2018-06-01T05:33:55Z</time>
      </trkpt>
      <trkpt lat="45.12182" lon="1.1938">
        <ele>138</ele>
        <time>2018-06-01T05:34:07Z</time>
      </trkpt>
      <trkpt lat="45.12167" lon="1.19376">
        <ele>138</ele>
        <time>2018-06-01T05:34:18Z</time>
      </trkpt>
      <trkpt lat="45.12154" lon="1.19371">
        <ele>142</ele>
        <time>2018-06-01T05:34:27Z</time>
      </trkpt>
      <trkpt lat="45.12139" lon="1.19371">
        <ele>142</ele>
        <time>2018-06-01T05:34:38Z</time>
      </trkpt>
      <trkpt lat="45.12128" lon="1.19377">
        <ele>140</ele>
        <time>2018-06-01T05:34:46Z</time>
      </trkpt>
      <trkpt lat="45.121" lon="1.19383">
        <ele>139</ele>
        <time>2018-06-01T05:35:08Z</time>
      </trkpt>
      <trkpt lat="45.12088" lon="1.19395">
        <ele>140</ele>
        <time>2018-06-01T05:35:18Z</time>
      </trkpt>
      <trkpt lat="45.12075" lon="1.19403">
        <ele>137</ele>
        <time>2018-06-01T05:35:29Z</time>
      </trkpt>
      <trkpt lat="45.1205" lon="1.19416">
        <ele>139</ele>
        <time>2018-06-01T05:35:49Z</time>
      </trkpt>
      <trkpt lat="45.12036" lon="1.19423">
        <ele>141</ele>
        <time>2018-06-01T05:35:59Z</time>
      </trkpt>
      <trkpt lat="45.12023" lon="1.19426">
        <ele>144</ele>
        <time>2018-06-01T05:36:09Z</time>
      </trkpt>
      <trkpt lat="45.12008" lon="1.19429">
        <ele>145</ele>
        <time>2018-06-01T05:36:21Z</time>
      </trkpt>
      <trkpt lat="45.11995" lon="1.19437">
        <ele>147</ele>
        <time>2018-06-01T05:36:31Z</time>
      </trkpt>
      <trkpt lat="45.11983" lon="1.19436">
        <ele>148</ele>
        <time>2018-06-01T05:36:39Z</time>
      </trkpt>
      <trkpt lat="45.11969" lon="1.19436">
        <ele>148</ele>
        <time>2018-06-01T05:36:49Z</time>
      </trkpt>
      <trkpt lat="45.11956" lon="1.19443">
        <ele>149</ele>
        <time>2018-06-01T05:36:59Z</time>
      </trkpt>
      <trkpt lat="45.11943" lon="1.19454">
        <ele>151</ele>
        <time>2018-06-01T05:37:10Z</time>
      </trkpt>
      <trkpt lat="45.11933" lon="1.19469">
        <ele>151</ele>
        <time>2018-06-01T05:37:23Z</time>
      </trkpt>
      <trkpt lat="45.11927" lon="1.19488">
        <ele>150</ele>
        <time>2018-06-01T05:37:48Z</time>
      </trkpt>
      <trkpt lat="45.11918" lon="1.19508">
        <ele>149</ele>
        <time>2018-06-01T05:38:02Z</time>
      </trkpt>
      <trkpt lat="45.11879" lon="1.19554">
        <ele>149</ele>
        <time>2018-06-01T05:38:29Z</time>
      </trkpt>
      <trkpt lat="45.11867" lon="1.19567">
        <ele>151</ele>
        <time>2018-06-01T05:38:38Z</time>
      </trkpt>
      <trkpt lat="45.11858" lon="1.19585">
        <ele>152</ele>
        <time>2018-06-01T05:38:46Z</time>
      </trkpt>
      <trkpt lat="45.11839" lon="1.19615">
        <ele>153</ele>
        <time>2018-06-01T05:39:11Z</time>
      </trkpt>
      <trkpt lat="45.11829" lon="1.19627">
        <ele>155</ele>
        <time>2018-06-01T05:39:22Z</time>
      </trkpt>
      <trkpt lat="45.11816" lon="1.19636">
        <ele>156</ele>
        <time>2018-06-01T05:39:34Z</time>
      </trkpt>
      <trkpt lat="45.11789" lon="1.19655">
        <ele>160</ele>
        <time>2018-06-01T05:40:02Z</time>
      </trkpt>
      <trkpt lat="45.11781" lon="1.19662">
        <ele>162</ele>
        <time>2018-06-01T05:40:15Z</time>
      </trkpt>
      <trkpt lat="45.11769" lon="1.19663">
        <ele>163</ele>
        <time>2018-06-01T05:40:25Z</time>
      </trkpt>
      <trkpt lat="45.11758" lon="1.19676">
        <ele>164</ele>
        <time>2018-06-01T05:40:38Z</time>
      </trkpt>
      <trkpt lat="45.11746" lon="1.19681">
        <ele>164</ele>
        <time>2018-06-01T05:40:41Z</time>
      </trkpt>
      <trkpt lat="45.11741" lon="1.19678">
        <ele>164</ele>
        <time>2018-06-01T05:40:48Z</time>
      </trkpt>
      <trkpt lat="45.1174" lon="1.19666">
        <ele>164</ele>
        <time>2018-06-01T05:41:02Z</time>
      </trkpt>
      <trkpt lat="45.11735" lon="1.19624">
        <ele>167</ele>
        <time>2018-06-01T05:41:27Z</time>
      </trkpt>
      <trkpt lat="45.11735" lon="1.19624">
        <ele>165</ele>
        <time>2018-06-01T05:42:00Z</time>
      </trkpt>
      <trkpt lat="45.11735" lon="1.19641">
        <ele>163</ele>
        <time>2018-06-01T05:42:14Z</time>
      </trkpt>
      <trkpt lat="45.1174" lon="1.19649">
        <ele>164</ele>
        <time>2018-06-01T05:42:20Z</time>
      </trkpt>
      <trkpt lat="45.11742" lon="1.1966">
        <ele>166</ele>
        <time>2018-06-01T05:42:27Z</time>
      </trkpt>
      <trkpt lat="45.11747" lon="1.19679">
        <ele>167</ele>
        <time>2018-06-01T05:42:59Z</time>
      </trkpt>
      <trkpt lat="45.11749" lon="1.19699">
        <ele>170</ele>
        <time>2018-06-01T05:43:10Z</time>
      </trkpt>
      <trkpt lat="45.11751" lon="1.19716">
        <ele>171</ele>
        <time>2018-06-01T05:43:27Z</time>
      </trkpt>
      <trkpt lat="45.11746" lon="1.19725">
        <ele>171</ele>
        <time>2018-06-01T05:43:37Z</time>
      </trkpt>
      <trkpt lat="45.11744" lon="1.19732">
        <ele>171</ele>
        <time>2018-06-01T05:43:48Z</time>
      </trkpt>
      <trkpt lat="45.11745" lon="1.1974">
        <ele>172</ele>
        <time>2018-06-01T05:43:59Z</time>
      </trkpt>
      <trkpt lat="45.11745" lon="1.19747">
        <ele>173</ele>
        <time>2018-06-01T05:44:12Z</time>
      </trkpt>
      <trkpt lat="45.11741" lon="1.19751">
        <ele>173</ele>
        <time>2018-06-01T05:44:18Z</time>
      </trkpt>
      <trkpt lat="45.11738" lon="1.19758">
        <ele>174</ele>
        <time>2018-06-01T05:44:22Z</time>
      </trkpt>
      <trkpt lat="45.11732" lon="1.19761">
        <ele>174</ele>
        <time>2018-06-01T05:44:29Z</time>
      </trkpt>
      <trkpt lat="45.11726" lon="1.19765">
        <ele>174</ele>
        <time>2018-06-01T05:44:34Z</time>
      </trkpt>
      <trkpt lat="45.11722" lon="1.19768">
        <ele>174</ele>
        <time>2018-06-01T05:44:45Z</time>
      </trkpt>
      <trkpt lat="45.11717" lon="1.19767">
        <ele>175</ele>
        <time>2018-06-01T05:44:50Z</time>
      </trkpt>
      <trkpt lat="45.11715" lon="1.19772">
        <ele>174</ele>
        <time>2018-06-01T05:44:51Z</time>
      </trkpt>
      <trkpt lat="45.11677" lon="1.19798">
        <ele>177</ele>
        <time>2018-06-01T05:45:23Z</time>
      </trkpt>
      <trkpt lat="45.11671" lon="1.19805">
        <ele>177</ele>
        <time>2018-06-01T05:45:27Z</time>
      </trkpt>
      <trkpt lat="45.11666" lon="1.19809">
        <ele>179</ele>
        <time>2018-06-01T05:45:32Z</time>
      </trkpt>
      <trkpt lat="45.11656" lon="1.19818">
        <ele>228</ele>
        <time>2018-06-01T05:45:41Z</time>
      </trkpt>
      <trkpt lat="45.11649" lon="1.19818">
        <ele>203</ele>
        <time>2018-06-01T05:45:47Z</time>
      </trkpt>
      <trkpt lat="45.116" lon="1.19786">
        <ele>195</ele>
        <time>2018-06-01T05:46:22Z</time>
      </trkpt>
      <trkpt lat="45.11606" lon="1.19775">
        <ele>250</ele>
        <time>2018-06-01T05:46:27Z</time>
      </trkpt>
      <trkpt lat="45.11596" lon="1.19772">
        <ele>191</ele>
        <time>2018-06-01T05:46:34Z</time>
      </trkpt>
      <trkpt lat="45.11586" lon="1.19772">
        <ele>182</ele>
        <time>2018-06-01T05:46:43Z</time>
      </trkpt>
      <trkpt lat="45.11557" lon="1.19795">
        <ele>188</ele>
        <time>2018-06-01T05:47:08Z</time>
      </trkpt>
      <trkpt lat="45.11548" lon="1.19801">
        <ele>188</ele>
        <time>2018-06-01T05:47:15Z</time>
      </trkpt>
      <trkpt lat="45.1152" lon="1.19808">
        <ele>190</ele>
        <time>2018-06-01T05:47:37Z</time>
      </trkpt>
      <trkpt lat="45.11515" lon="1.19808">
        <ele>191</ele>
        <time>2018-06-01T05:47:40Z</time>
      </trkpt>
      <trkpt lat="45.11506" lon="1.19804">
        <ele>192</ele>
        <time>2018-06-01T05:47:47Z</time>
      </trkpt>
      <trkpt lat="45.11502" lon="1.19799">
        <ele>192</ele>
        <time>2018-06-01T05:47:51Z</time>
      </trkpt>
      <trkpt lat="45.11498" lon="1.19795">
        <ele>193</ele>
        <time>2018-06-01T05:47:55Z</time>
      </trkpt>
      <trkpt lat="45.11496" lon="1.19788">
        <ele>193</ele>
        <time>2018-06-01T05:47:59Z</time>
      </trkpt>
      <trkpt lat="45.11495" lon="1.19781">
        <ele>193</ele>
        <time>2018-06-01T05:48:03Z</time>
      </trkpt>
      <trkpt lat="45.11501" lon="1.19718">
        <ele>196</ele>
        <time>2018-06-01T05:48:35Z</time>
      </trkpt>
      <trkpt lat="45.11502" lon="1.19712">
        <ele>198</ele>
        <time>2018-06-01T05:48:39Z</time>
      </trkpt>
      <trkpt lat="45.11505" lon="1.19704">
        <ele>198</ele>
        <time>2018-06-01T05:48:44Z</time>
      </trkpt>
      <trkpt lat="45.11506" lon="1.19699">
        <ele>204</ele>
        <time>2018-06-01T05:48:47Z</time>
      </trkpt>
      <trkpt lat="45.11507" lon="1.19691">
        <ele>210</ele>
        <time>2018-06-01T05:48:51Z</time>
      </trkpt>
      <trkpt lat="45.11508" lon="1.19678">
        <ele>202</ele>
        <time>2018-06-01T05:48:58Z</time>
      </trkpt>
      <trkpt lat="45.115" lon="1.19648">
        <ele>198</ele>
        <time>2018-06-01T05:49:16Z</time>
      </trkpt>
      <trkpt lat="45.1149" lon="1.19639">
        <ele>199</ele>
        <time>2018-06-01T05:49:25Z</time>
      </trkpt>
      <trkpt lat="45.11481" lon="1.19636">
        <ele>201</ele>
        <time>2018-06-01T05:49:32Z</time>
      </trkpt>
      <trkpt lat="45.11456" lon="1.19637">
        <ele>203</ele>
        <time>2018-06-01T05:49:52Z</time>
      </trkpt>
      <trkpt lat="45.11444" lon="1.19632">
        <ele>204</ele>
        <time>2018-06-01T05:50:01Z</time>
      </trkpt>
      <trkpt lat="45.11435" lon="1.19625">
        <ele>206</ele>
        <time>2018-06-01T05:50:09Z</time>
      </trkpt>
      <trkpt lat="45.11428" lon="1.19609">
        <ele>207</ele>
        <time>2018-06-01T05:50:19Z</time>
      </trkpt>
      <trkpt lat="45.11424" lon="1.19598">
        <ele>206</ele>
        <time>2018-06-01T05:50:25Z</time>
      </trkpt>
      <trkpt lat="45.1142" lon="1.19586">
        <ele>216</ele>
        <time>2018-06-01T05:50:31Z</time>
      </trkpt>
      <trkpt lat="45.1141" lon="1.19556">
        <ele>208</ele>
        <time>2018-06-01T05:50:48Z</time>
      </trkpt>
      <trkpt lat="45.11373" lon="1.19514">
        <ele>201</ele>
        <time>2018-06-01T05:51:24Z</time>
      </trkpt>
      <trkpt lat="45.11364" lon="1.19512">
        <ele>204</ele>
        <time>2018-06-01T05:51:32Z</time>
      </trkpt>
      <trkpt lat="45.11331" lon="1.19536">
        <ele>207</ele>
        <time>2018-06-01T05:52:02Z</time>
      </trkpt>
      <trkpt lat="45.11324" lon="1.19543">
        <ele>208</ele>
        <time>2018-06-01T05:52:08Z</time>
      </trkpt>
      <trkpt lat="45.11316" lon="1.19552">
        <ele>209</ele>
        <time>2018-06-01T05:52:12Z</time>
      </trkpt>
      <trkpt lat="45.11301" lon="1.19565">
        <ele>211</ele>
        <time>2018-06-01T05:52:23Z</time>
      </trkpt>
      <trkpt lat="45.11273" lon="1.19569">
        <ele>215</ele>
        <time>2018-06-01T05:52:46Z</time>
      </trkpt>
      <trkpt lat="45.11263" lon="1.1957">
        <ele>216</ele>
        <time>2018-06-01T05:52:53Z</time>
      </trkpt>
      <trkpt lat="45.11249" lon="1.19562">
        <ele>216</ele>
        <time>2018-06-01T05:53:12Z</time>
      </trkpt>
      <trkpt lat="45.11243" lon="1.19554">
        <ele>215</ele>
        <time>2018-06-01T05:53:19Z</time>
      </trkpt>
      <trkpt lat="45.11245" lon="1.19549">
        <ele>215</ele>
        <time>2018-06-01T05:53:54Z</time>
      </trkpt>
      <trkpt lat="45.1125" lon="1.19545">
        <ele>219</ele>
        <time>2018-06-01T05:53:58Z</time>
      </trkpt>
      <trkpt lat="45.11258" lon="1.19538">
        <ele>224</ele>
        <time>2018-06-01T05:54:06Z</time>
      </trkpt>
      <trkpt lat="45.11262" lon="1.19535">
        <ele>220</ele>
        <time>2018-06-01T05:54:16Z</time>
      </trkpt>
      <trkpt lat="45.11266" lon="1.19532">
        <ele>220</ele>
        <time>2018-06-01T05:54:20Z</time>
      </trkpt>
      <trkpt lat="45.1127" lon="1.19521">
        <ele>221</ele>
        <time>2018-06-01T05:54:28Z</time>
      </trkpt>
      <trkpt lat="45.11273" lon="1.19482">
        <ele>220</ele>
        <time>2018-06-01T05:54:50Z</time>
      </trkpt>
      <trkpt lat="45.11274" lon="1.19468">
        <ele>222</ele>
        <time>2018-06-01T05:54:58Z</time>
      </trkpt>
      <trkpt lat="45.11274" lon="1.19463">
        <ele>222</ele>
        <time>2018-06-01T05:55:01Z</time>
      </trkpt>
      <trkpt lat="45.11277" lon="1.1943">
        <ele>223</ele>
        <time>2018-06-01T05:55:19Z</time>
      </trkpt>
      <trkpt lat="45.11279" lon="1.19424">
        <ele>224</ele>
        <time>2018-06-01T05:55:23Z</time>
      </trkpt>
      <trkpt lat="45.1128" lon="1.19416">
        <ele>224</ele>
        <time>2018-06-01T05:55:27Z</time>
      </trkpt>
      <trkpt lat="45.1128" lon="1.1941">
        <ele>242</ele>
        <time>2018-06-01T05:55:31Z</time>
      </trkpt>
      <trkpt lat="45.1128" lon="1.19397">
        <ele>233</ele>
        <time>2018-06-01T05:55:39Z</time>
      </trkpt>
      <trkpt lat="45.11283" lon="1.1939">
        <ele>230</ele>
        <time>2018-06-01T05:55:42Z</time>
      </trkpt>
      <trkpt lat="45.11285" lon="1.1937">
        <ele>233</ele>
        <time>2018-06-01T05:55:51Z</time>
      </trkpt>
      <trkpt lat="45.11293" lon="1.19304">
        <ele>235</ele>
        <time>2018-06-01T05:56:27Z</time>
      </trkpt>
      <trkpt lat="45.11299" lon="1.19304">
        <ele>235</ele>
        <time>2018-06-01T05:56:29Z</time>
      </trkpt>
      <trkpt lat="45.11305" lon="1.19295">
        <ele>231</ele>
        <time>2018-06-01T05:56:37Z</time>
      </trkpt>
      <trkpt lat="45.11311" lon="1.19284">
        <ele>230</ele>
        <time>2018-06-01T05:56:44Z</time>
      </trkpt>
      <trkpt lat="45.11312" lon="1.19277">
        <ele>231</ele>
        <time>2018-06-01T05:56:47Z</time>
      </trkpt>
      <trkpt lat="45.11316" lon="1.19277">
        <ele>231</ele>
        <time>2018-06-01T05:56:54Z</time>
      </trkpt>
      <trkpt lat="45.11319" lon="1.19263">
        <ele>231</ele>
        <time>2018-06-01T05:57:00Z</time>
      </trkpt>
      <trkpt lat="45.11321" lon="1.19257">
        <ele>230</ele>
        <time>2018-06-01T05:57:04Z</time>
      </trkpt>
      <trkpt lat="45.1133" lon="1.19245">
        <ele>231</ele>
        <time>2018-06-01T05:57:14Z</time>
      </trkpt>
      <trkpt lat="45.11341" lon="1.1922">
        <ele>234</ele>
        <time>2018-06-01T05:57:28Z</time>
      </trkpt>
      <trkpt lat="45.11345" lon="1.19215">
        <ele>234</ele>
        <time>2018-06-01T05:57:32Z</time>
      </trkpt>
      <trkpt lat="45.1135" lon="1.19204">
        <ele>234</ele>
        <time>2018-06-01T05:57:39Z</time>
      </trkpt>
      <trkpt lat="45.11354" lon="1.19193">
        <ele>236</ele>
        <time>2018-06-01T05:57:45Z</time>
      </trkpt>
      <trkpt lat="45.11357" lon="1.19189">
        <ele>237</ele>
        <time>2018-06-01T05:57:48Z</time>
      </trkpt>
      <trkpt lat="45.11383" lon="1.19139">
        <ele>234</ele>
        <time>2018-06-01T05:58:21Z</time>
      </trkpt>
      <trkpt lat="45.11387" lon="1.19135">
        <ele>235</ele>
        <time>2018-06-01T05:58:24Z</time>
      </trkpt>
      <trkpt lat="45.11392" lon="1.19122">
        <ele>235</ele>
        <time>2018-06-01T05:58:32Z</time>
      </trkpt>
      <trkpt lat="45.11401" lon="1.19108">
        <ele>248</ele>
        <time>2018-06-01T05:58:41Z</time>
      </trkpt>
      <trkpt lat="45.11405" lon="1.19104">
        <ele>244</ele>
        <time>2018-06-01T05:58:45Z</time>
      </trkpt>
      <trkpt lat="45.11415" lon="1.19106">
        <ele>236</ele>
        <time>2018-06-01T05:58:56Z</time>
      </trkpt>
      <trkpt lat="45.1142" lon="1.19108">
        <ele>236</ele>
        <time>2018-06-01T05:59:00Z</time>
      </trkpt>
      <trkpt lat="45.11426" lon="1.1911">
        <ele>238</ele>
        <time>2018-06-01T05:59:06Z</time>
      </trkpt>
      <trkpt lat="45.11433" lon="1.19102">
        <ele>238</ele>
        <time>2018-06-01T05:59:14Z</time>
      </trkpt>
      <trkpt lat="45.11442" lon="1.19086">
        <ele>239</ele>
        <time>2018-06-01T05:59:24Z</time>
      </trkpt>
      <trkpt lat="45.11443" lon="1.19077">
        <ele>239</ele>
        <time>2018-06-01T05:59:28Z</time>
      </trkpt>
      <trkpt lat="45.11441" lon="1.19063">
        <ele>235</ele>
        <time>2018-06-01T05:59:35Z</time>
      </trkpt>
      <trkpt lat="45.11447" lon="1.19055">
        <ele>230</ele>
        <time>2018-06-01T05:59:42Z</time>
      </trkpt>
      <trkpt lat="45.11451" lon="1.19013">
        <ele>228</ele>
        <time>2018-06-01T06:00:04Z</time>
      </trkpt>
      <trkpt lat="45.11458" lon="1.18986">
        <ele>219</ele>
        <time>2018-06-01T06:00:20Z</time>
      </trkpt>
      <trkpt lat="45.11457" lon="1.18958">
        <ele>218</ele>
        <time>2018-06-01T06:00:34Z</time>
      </trkpt>
      <trkpt lat="45.11487" lon="1.18908">
        <ele>222</ele>
        <time>2018-06-01T06:01:27Z</time>
      </trkpt>
      <trkpt lat="45.11492" lon="1.18893">
        <ele>231</ele>
        <time>2018-06-01T06:01:41Z</time>
      </trkpt>
      <trkpt lat="45.11488" lon="1.18869">
        <ele>241</ele>
        <time>2018-06-01T06:01:49Z</time>
      </trkpt>
      <trkpt lat="45.11489" lon="1.18859">
        <ele>239</ele>
        <time>2018-06-01T06:01:57Z</time>
      </trkpt>
      <trkpt lat="45.11484" lon="1.18827">
        <ele>237</ele>
        <time>2018-06-01T06:02:13Z</time>
      </trkpt>
      <trkpt lat="45.11485" lon="1.18817">
        <ele>233</ele>
        <time>2018-06-01T06:02:19Z</time>
      </trkpt>
      <trkpt lat="45.11488" lon="1.18806">
        <ele>234</ele>
        <time>2018-06-01T06:02:26Z</time>
      </trkpt>
      <trkpt lat="45.11489" lon="1.18796">
        <ele>235</ele>
        <time>2018-06-01T06:02:33Z</time>
      </trkpt>
      <trkpt lat="45.11492" lon="1.18787">
        <ele>238</ele>
        <time>2018-06-01T06:02:40Z</time>
      </trkpt>
      <trkpt lat="45.11487" lon="1.18745">
        <ele>241</ele>
        <time>2018-06-01T06:03:01Z</time>
      </trkpt>
      <trkpt lat="45.11491" lon="1.18727">
        <ele>239</ele>
        <time>2018-06-01T06:03:13Z</time>
      </trkpt>
      <trkpt lat="45.11489" lon="1.18716">
        <ele>240</ele>
        <time>2018-06-01T06:03:18Z</time>
      </trkpt>
      <trkpt lat="45.11485" lon="1.18708">
        <ele>244</ele>
        <time>2018-06-01T06:03:21Z</time>
      </trkpt>
      <trkpt lat="45.11482" lon="1.187">
        <ele>246</ele>
        <time>2018-06-01T06:03:26Z</time>
      </trkpt>
      <trkpt lat="45.11484" lon="1.18691">
        <ele>243</ele>
        <time>2018-06-01T06:03:31Z</time>
      </trkpt>
      <trkpt lat="45.11478" lon="1.18676">
        <ele>242</ele>
        <time>2018-06-01T06:03:40Z</time>
      </trkpt>
      <trkpt lat="45.11475" lon="1.1866">
        <ele>239</ele>
        <time>2018-06-01T06:03:48Z</time>
      </trkpt>
      <trkpt lat="45.11471" lon="1.18654">
        <ele>239</ele>
        <time>2018-06-01T06:03:51Z</time>
      </trkpt>
      <trkpt lat="45.11463" lon="1.18629">
        <ele>232</ele>
        <time>2018-06-01T06:04:05Z</time>
      </trkpt>
      <trkpt lat="45.11441" lon="1.1858">
        <ele>229</ele>
        <time>2018-06-01T06:04:36Z</time>
      </trkpt>
      <trkpt lat="45.11437" lon="1.18568">
        <ele>229</ele>
        <time>2018-06-01T06:04:44Z</time>
      </trkpt>
      <trkpt lat="45.11427" lon="1.18552">
        <ele>229</ele>
        <time>2018-06-01T06:04:55Z</time>
      </trkpt>
      <trkpt lat="45.11405" lon="1.18529">
        <ele>224</ele>
        <time>2018-06-01T06:05:16Z</time>
      </trkpt>
      <trkpt lat="45.114" lon="1.18526">
        <ele>224</ele>
        <time>2018-06-01T06:05:20Z</time>
      </trkpt>
      <trkpt lat="45.11396" lon="1.18524">
        <ele>223</ele>
        <time>2018-06-01T06:05:24Z</time>
      </trkpt>
      <trkpt lat="45.11383" lon="1.18515">
        <ele>221</ele>
        <time>2018-06-01T06:05:36Z</time>
      </trkpt>
      <trkpt lat="45.11364" lon="1.18493">
        <ele>218</ele>
        <time>2018-06-01T06:05:55Z</time>
      </trkpt>
      <trkpt lat="45.11359" lon="1.18488">
        <ele>216</ele>
        <time>2018-06-01T06:05:59Z</time>
      </trkpt>
      <trkpt lat="45.11352" lon="1.18481">
        <ele>214</ele>
        <time>2018-06-01T06:06:06Z</time>
      </trkpt>
      <trkpt lat="45.1131" lon="1.18447">
        <ele>219</ele>
        <time>2018-06-01T06:06:38Z</time>
      </trkpt>
      <trkpt lat="45.11291" lon="1.18418">
        <ele>221</ele>
        <time>2018-06-01T06:06:57Z</time>
      </trkpt>
      <trkpt lat="45.11267" lon="1.18368">
        <ele>225</ele>
        <time>2018-06-01T06:07:28Z</time>
      </trkpt>
      <trkpt lat="45.11263" lon="1.18358">
        <ele>224</ele>
        <time>2018-06-01T06:07:34Z</time>
      </trkpt>
      <trkpt lat="45.11259" lon="1.18346">
        <ele>223</ele>
        <time>2018-06-01T06:07:40Z</time>
      </trkpt>
      <trkpt lat="45.11255" lon="1.18343">
        <ele>225</ele>
        <time>2018-06-01T06:08:50Z</time>
      </trkpt>
      <trkpt lat="45.11251" lon="1.18342">
        <ele>225</ele>
        <time>2018-06-01T06:08:55Z</time>
      </trkpt>
      <trkpt lat="45.1122" lon="1.18315">
        <ele>226</ele>
        <time>2018-06-01T06:09:25Z</time>
      </trkpt>
      <trkpt lat="45.11217" lon="1.18313">
        <ele>226</ele>
        <time>2018-06-01T06:09:28Z</time>
      </trkpt>
      <trkpt lat="45.11209" lon="1.18308">
        <ele>226</ele>
        <time>2018-06-01T06:09:35Z</time>
      </trkpt>
      <trkpt lat="45.11171" lon="1.18281">
        <ele>228</ele>
        <time>2018-06-01T06:10:05Z</time>
      </trkpt>
      <trkpt lat="45.11142" lon="1.18265">
        <ele>228</ele>
        <time>2018-06-01T06:10:26Z</time>
      </trkpt>
      <trkpt lat="45.1111" lon="1.18255">
        <ele>230</ele>
        <time>2018-06-01T06:10:51Z</time>
      </trkpt>
      <trkpt lat="45.11084" lon="1.18233">
        <ele>227</ele>
        <time>2018-06-01T06:11:25Z</time>
      </trkpt>
      <trkpt lat="45.11075" lon="1.18241">
        <ele>232</ele>
        <time>2018-06-01T06:11:31Z</time>
      </trkpt>
      <trkpt lat="45.11069" lon="1.18232">
        <ele>231</ele>
        <time>2018-06-01T06:11:58Z</time>
      </trkpt>
      <trkpt lat="45.11047" lon="1.18215">
        <ele>224</ele>
        <time>2018-06-01T06:12:15Z</time>
      </trkpt>
      <trkpt lat="45.11043" lon="1.18209">
        <ele>221</ele>
        <time>2018-06-01T06:12:20Z</time>
      </trkpt>
      <trkpt lat="45.11042" lon="1.18201">
        <ele>220</ele>
        <time>2018-06-01T06:12:29Z</time>
      </trkpt>
      <trkpt lat="45.11026" lon="1.18183">
        <ele>215</ele>
        <time>2018-06-01T06:12:45Z</time>
      </trkpt>
      <trkpt lat="45.11023" lon="1.1818">
        <ele>214</ele>
        <time>2018-06-01T06:12:51Z</time>
      </trkpt>
      <trkpt lat="45.11019" lon="1.18174">
        <ele>214</ele>
        <time>2018-06-01T06:13:08Z</time>
      </trkpt>
      <trkpt lat="45.11001" lon="1.18156">
        <ele>209</ele>
        <time>2018-06-01T06:13:28Z</time>
      </trkpt>
      <trkpt lat="45.10973" lon="1.18137">
        <ele>209</ele>
        <time>2018-06-01T06:13:52Z</time>
      </trkpt>
      <trkpt lat="45.10969" lon="1.18135">
        <ele>209</ele>
        <time>2018-06-01T06:13:56Z</time>
      </trkpt>
      <trkpt lat="45.10947" lon="1.1811">
        <ele>208</ele>
        <time>2018-06-01T06:14:11Z</time>
      </trkpt>
      <trkpt lat="45.10922" lon="1.1807">
        <ele>205</ele>
        <time>2018-06-01T06:14:40Z</time>
      </trkpt>
      <trkpt lat="45.10917" lon="1.18062">
        <ele>205</ele>
        <time>2018-06-01T06:14:45Z</time>
      </trkpt>
      <trkpt lat="45.10906" lon="1.18042">
        <ele>207</ele>
        <time>2018-06-01T06:14:58Z</time>
      </trkpt>
      <trkpt lat="45.10898" lon="1.18021">
        <ele>206</ele>
        <time>2018-06-01T06:15:11Z</time>
      </trkpt>
      <trkpt lat="45.10894" lon="1.18002">
        <ele>205</ele>
        <time>2018-06-01T06:15:20Z</time>
      </trkpt>
      <trkpt lat="45.10893" lon="1.17991">
        <ele>206</ele>
        <time>2018-06-01T06:15:27Z</time>
      </trkpt>
      <trkpt lat="45.10898" lon="1.1797">
        <ele>204</ele>
        <time>2018-06-01T06:15:40Z</time>
      </trkpt>
      <trkpt lat="45.10897" lon="1.17962">
        <ele>204</ele>
        <time>2018-06-01T06:15:45Z</time>
      </trkpt>
      <trkpt lat="45.10899" lon="1.17956">
        <ele>204</ele>
        <time>2018-06-01T06:15:48Z</time>
      </trkpt>
      <trkpt lat="45.109" lon="1.17947">
        <ele>203</ele>
        <time>2018-06-01T06:15:52Z</time>
      </trkpt>
      <trkpt lat="45.10879" lon="1.17878">
        <ele>202</ele>
        <time>2018-06-01T06:16:29Z</time>
      </trkpt>
      <trkpt lat="45.10861" lon="1.17846">
        <ele>203</ele>
        <time>2018-06-01T06:16:52Z</time>
      </trkpt>
      <trkpt lat="45.1083" lon="1.17816">
        <ele>204</ele>
        <time>2018-06-01T06:17:15Z</time>
      </trkpt>
      <trkpt lat="45.10806" lon="1.17802">
        <ele>203</ele>
        <time>2018-06-01T06:17:36Z</time>
      </trkpt>
      <trkpt lat="45.10799" lon="1.17801">
        <ele>205</ele>
        <time>2018-06-01T06:17:40Z</time>
      </trkpt>
      <trkpt lat="45.10753" lon="1.17797">
        <ele>209</ele>
        <time>2018-06-01T06:18:10Z</time>
      </trkpt>
      <trkpt lat="45.10747" lon="1.17796">
        <ele>209</ele>
        <time>2018-06-01T06:18:13Z</time>
      </trkpt>
      <trkpt lat="45.10732" lon="1.17788">
        <ele>210</ele>
        <time>2018-06-01T06:18:25Z</time>
      </trkpt>
      <trkpt lat="45.10714" lon="1.17781">
        <ele>212</ele>
        <time>2018-06-01T06:18:37Z</time>
      </trkpt>
      <trkpt lat="45.10708" lon="1.17778">
        <ele>212</ele>
        <time>2018-06-01T06:18:41Z</time>
      </trkpt>
      <trkpt lat="45.107" lon="1.17775">
        <ele>209</ele>
        <time>2018-06-01T06:18:48Z</time>
      </trkpt>
      <trkpt lat="45.10693" lon="1.17771">
        <ele>207</ele>
        <time>2018-06-01T06:18:52Z</time>
      </trkpt>
      <trkpt lat="45.10688" lon="1.17768">
        <ele>204</ele>
        <time>2018-06-01T06:18:57Z</time>
      </trkpt>
      <trkpt lat="45.10681" lon="1.17766">
        <ele>204</ele>
        <time>2018-06-01T06:19:01Z</time>
      </trkpt>
      <trkpt lat="45.10676" lon="1.1776">
        <ele>203</ele>
        <time>2018-06-01T06:19:05Z</time>
      </trkpt>
      <trkpt lat="45.10668" lon="1.17752">
        <ele>201</ele>
        <time>2018-06-01T06:19:13Z</time>
      </trkpt>
      <trkpt lat="45.1066" lon="1.17745">
        <ele>202</ele>
        <time>2018-06-01T06:19:19Z</time>
      </trkpt>
      <trkpt lat="45.10656" lon="1.17742">
        <ele>202</ele>
        <time>2018-06-01T06:19:23Z</time>
      </trkpt>
      <trkpt lat="45.10649" lon="1.17726">
        <ele>198</ele>
        <time>2018-06-01T06:19:32Z</time>
      </trkpt>
      <trkpt lat="45.10646" lon="1.17721">
        <ele>197</ele>
        <time>2018-06-01T06:19:36Z</time>
      </trkpt>
      <trkpt lat="45.10621" lon="1.17675">
        <ele>192</ele>
        <time>2018-06-01T06:20:04Z</time>
      </trkpt>
      <trkpt lat="45.10613" lon="1.17659">
        <ele>191</ele>
        <time>2018-06-01T06:20:14Z</time>
      </trkpt>
      <trkpt lat="45.10585" lon="1.1763">
        <ele>191</ele>
        <time>2018-06-01T06:20:39Z</time>
      </trkpt>
      <trkpt lat="45.10565" lon="1.17613">
        <ele>193</ele>
        <time>2018-06-01T06:20:55Z</time>
      </trkpt>
      <trkpt lat="45.10515" lon="1.17583">
        <ele>207</ele>
        <time>2018-06-01T06:21:31Z</time>
      </trkpt>
      <trkpt lat="45.10516" lon="1.17569">
        <ele>198</ele>
        <time>2018-06-01T06:21:35Z</time>
      </trkpt>
      <trkpt lat="45.10499" lon="1.1755">
        <ele>193</ele>
        <time>2018-06-01T06:21:50Z</time>
      </trkpt>
      <trkpt lat="45.10493" lon="1.17548">
        <ele>204</ele>
        <time>2018-06-01T06:21:54Z</time>
      </trkpt>
      <trkpt lat="45.10489" lon="1.17548">
        <ele>209</ele>
        <time>2018-06-01T06:22:00Z</time>
      </trkpt>
      <trkpt lat="45.10485" lon="1.17546">
        <ele>205</ele>
        <time>2018-06-01T06:22:05Z</time>
      </trkpt>
      <trkpt lat="45.1048" lon="1.17542">
        <ele>198</ele>
        <time>2018-06-01T06:22:09Z</time>
      </trkpt>
      <trkpt lat="45.10462" lon="1.17527">
        <ele>186</ele>
        <time>2018-06-01T06:22:20Z</time>
      </trkpt>
      <trkpt lat="45.10452" lon="1.17521">
        <ele>184</ele>
        <time>2018-06-01T06:22:26Z</time>
      </trkpt>
      <trkpt lat="45.10442" lon="1.17515">
        <ele>180</ele>
        <time>2018-06-01T06:22:30Z</time>
      </trkpt>
      <trkpt lat="45.10426" lon="1.17502">
        <ele>177</ele>
        <time>2018-06-01T06:22:46Z</time>
      </trkpt>
      <trkpt lat="45.10401" lon="1.1749">
        <ele>177</ele>
        <time>2018-06-01T06:23:07Z</time>
      </trkpt>
      <trkpt lat="45.10394" lon="1.17491">
        <ele>178</ele>
        <time>2018-06-01T06:23:27Z</time>
      </trkpt>
      <trkpt lat="45.10391" lon="1.17487">
        <ele>179</ele>
        <time>2018-06-01T06:23:37Z</time>
      </trkpt>
      <trkpt lat="45.10354" lon="1.17444">
        <ele>181</ele>
        <time>2018-06-01T06:24:07Z</time>
      </trkpt>
      <trkpt lat="45.10342" lon="1.17436">
        <ele>181</ele>
        <time>2018-06-01T06:24:18Z</time>
      </trkpt>
      <trkpt lat="45.10335" lon="1.17434">
        <ele>178</ele>
        <time>2018-06-01T06:24:22Z</time>
      </trkpt>
      <trkpt lat="45.10305" lon="1.17444">
        <ele>177</ele>
        <time>2018-06-01T06:24:53Z</time>
      </trkpt>
      <trkpt lat="45.10298" lon="1.17447">
        <ele>177</ele>
        <time>2018-06-01T06:24:57Z</time>
      </trkpt>
      <trkpt lat="45.10248" lon="1.17454">
        <ele>183</ele>
        <time>2018-06-01T06:25:29Z</time>
      </trkpt>
      <trkpt lat="45.1024" lon="1.17455">
        <ele>185</ele>
        <time>2018-06-01T06:25:33Z</time>
      </trkpt>
      <trkpt lat="45.10231" lon="1.17454">
        <ele>188</ele>
        <time>2018-06-01T06:25:37Z</time>
      </trkpt>
      <trkpt lat="45.10213" lon="1.17455">
        <ele>188</ele>
        <time>2018-06-01T06:25:48Z</time>
      </trkpt>
      <trkpt lat="45.10206" lon="1.17454">
        <ele>187</ele>
        <time>2018-06-01T06:25:52Z</time>
      </trkpt>
      <trkpt lat="45.1015" lon="1.17515">
        <ele>195</ele>
        <time>2018-06-01T06:26:34Z</time>
      </trkpt>
      <trkpt lat="45.1014" lon="1.17508">
        <ele>193</ele>
        <time>2018-06-01T06:26:43Z</time>
      </trkpt>
      <trkpt lat="45.10123" lon="1.17516">
        <ele>191</ele>
        <time>2018-06-01T06:26:56Z</time>
      </trkpt>
      <trkpt lat="45.10115" lon="1.1752">
        <ele>188</ele>
        <time>2018-06-01T06:27:05Z</time>
      </trkpt>
      <trkpt lat="45.10103" lon="1.17547">
        <ele>187</ele>
        <time>2018-06-01T06:27:30Z</time>
      </trkpt>
      <trkpt lat="45.10101" lon="1.1757">
        <ele>175</ele>
        <time>2018-06-01T06:27:47Z</time>
      </trkpt>
      <trkpt lat="45.10094" lon="1.17607">
        <ele>174</ele>
        <time>2018-06-01T06:28:00Z</time>
      </trkpt>
      <trkpt lat="45.10077" lon="1.17639">
        <ele>180</ele>
        <time>2018-06-01T06:28:17Z</time>
      </trkpt>
      <trkpt lat="45.10062" lon="1.17653">
        <ele>178</ele>
        <time>2018-06-01T06:28:29Z</time>
      </trkpt>
      <trkpt lat="45.10037" lon="1.17668">
        <ele>175</ele>
        <time>2018-06-01T06:28:46Z</time>
      </trkpt>
      <trkpt lat="45.10029" lon="1.17668">
        <ele>173</ele>
        <time>2018-06-01T06:28:53Z</time>
      </trkpt>
      <trkpt lat="45.10025" lon="1.17665">
        <ele>172</ele>
        <time>2018-06-01T06:28:56Z</time>
      </trkpt>
      <trkpt lat="45.10004" lon="1.1765">
        <ele>167</ele>
        <time>2018-06-01T06:29:13Z</time>
      </trkpt>
      <trkpt lat="45.0997" lon="1.17617">
        <ele>161</ele>
        <time>2018-06-01T06:29:43Z</time>
      </trkpt>
      <trkpt lat="45.09957" lon="1.17607">
        <ele>162</ele>
        <time>2018-06-01T06:29:52Z</time>
      </trkpt>
      <trkpt lat="45.09939" lon="1.17603">
        <ele>157</ele>
        <time>2018-06-01T06:30:08Z</time>
      </trkpt>
      <trkpt lat="45.09934" lon="1.17606">
        <ele>154</ele>
        <time>2018-06-01T06:30:25Z</time>
      </trkpt>
      <trkpt lat="45.09933" lon="1.17613">
        <ele>155</ele>
        <time>2018-06-01T06:30:51Z</time>
      </trkpt>
      <trkpt lat="45.09932" lon="1.17625">
        <ele>156</ele>
        <time>2018-06-01T06:30:57Z</time>
      </trkpt>
      <trkpt lat="45.09914" lon="1.17688">
        <ele>149</ele>
        <time>2018-06-01T06:31:32Z</time>
      </trkpt>
      <trkpt lat="45.09915" lon="1.17725">
        <ele>152</ele>
        <time>2018-06-01T06:31:49Z</time>
      </trkpt>
      <trkpt lat="45.0991" lon="1.17728">
        <ele>152</ele>
        <time>2018-06-01T06:31:52Z</time>
      </trkpt>
      <trkpt lat="45.09908" lon="1.17733">
        <ele>151</ele>
        <time>2018-06-01T06:31:57Z</time>
      </trkpt>
      <trkpt lat="45.09905" lon="1.17737">
        <ele>150</ele>
        <time>2018-06-01T06:32:01Z</time>
      </trkpt>
      <trkpt lat="45.099" lon="1.17749">
        <ele>150</ele>
        <time>2018-06-01T06:32:08Z</time>
      </trkpt>
      <trkpt lat="45.09897" lon="1.17755">
        <ele>149</ele>
        <time>2018-06-01T06:32:11Z</time>
      </trkpt>
      <trkpt lat="45.09895" lon="1.1776">
        <ele>149</ele>
        <time>2018-06-01T06:32:14Z</time>
      </trkpt>
      <trkpt lat="45.09895" lon="1.17766">
        <ele>147</ele>
        <time>2018-06-01T06:32:18Z</time>
      </trkpt>
      <trkpt lat="45.09891" lon="1.17777">
        <ele>146</ele>
        <time>2018-06-01T06:32:24Z</time>
      </trkpt>
      <trkpt lat="45.09886" lon="1.1778">
        <ele>146</ele>
        <time>2018-06-01T06:32:28Z</time>
      </trkpt>
      <trkpt lat="45.09873" lon="1.17773">
        <ele>143</ele>
        <time>2018-06-01T06:32:38Z</time>
      </trkpt>
      <trkpt lat="45.09868" lon="1.17774">
        <ele>143</ele>
        <time>2018-06-01T06:32:44Z</time>
      </trkpt>
      <trkpt lat="45.09854" lon="1.17783">
        <ele>142</ele>
        <time>2018-06-01T06:32:55Z</time>
      </trkpt>
      <trkpt lat="45.09818" lon="1.17814">
        <ele>137</ele>
        <time>2018-06-01T06:33:26Z</time>
      </trkpt>
      <trkpt lat="45.09813" lon="1.17818">
        <ele>136</ele>
        <time>2018-06-01T06:33:30Z</time>
      </trkpt>
      <trkpt lat="45.09808" lon="1.17819">
        <ele>135</ele>
        <time>2018-06-01T06:33:34Z</time>
      </trkpt>
      <trkpt lat="45.09804" lon="1.17823">
        <ele>135</ele>
        <time>2018-06-01T06:33:38Z</time>
      </trkpt>
      <trkpt lat="45.098" lon="1.17834">
        <ele>134</ele>
        <time>2018-06-01T06:33:45Z</time>
      </trkpt>
      <trkpt lat="45.098" lon="1.17875">
        <ele>130</ele>
        <time>2018-06-01T06:34:06Z</time>
      </trkpt>
      <trkpt lat="45.09798" lon="1.17881">
        <ele>130</ele>
        <time>2018-06-01T06:34:09Z</time>
      </trkpt>
      <trkpt lat="45.09788" lon="1.1788">
        <ele>129</ele>
        <time>2018-06-01T06:34:15Z</time>
      </trkpt>
      <trkpt lat="45.09779" lon="1.1788">
        <ele>127</ele>
        <time>2018-06-01T06:34:21Z</time>
      </trkpt>
      <trkpt lat="45.09736" lon="1.17863">
        <ele>122</ele>
        <time>2018-06-01T06:34:53Z</time>
      </trkpt>
      <trkpt lat="45.09696" lon="1.17845">
        <ele>117</ele>
        <time>2018-06-01T06:35:23Z</time>
      </trkpt>
      <trkpt lat="45.09655" lon="1.17829">
        <ele>114</ele>
        <time>2018-06-01T06:35:52Z</time>
      </trkpt>
      <trkpt lat="45.09651" lon="1.17827">
        <ele>115</ele>
        <time>2018-06-01T06:35:56Z</time>
      </trkpt>
      <trkpt lat="45.09601" lon="1.17802">
        <ele>113</ele>
        <time>2018-06-01T06:36:32Z</time>
      </trkpt>
      <trkpt lat="45.09557" lon="1.1777">
        <ele>117</ele>
        <time>2018-06-01T06:37:05Z</time>
      </trkpt>
      <trkpt lat="45.09518" lon="1.17744">
        <ele>115</ele>
        <time>2018-06-01T06:37:35Z</time>
      </trkpt>
      <trkpt lat="45.09475" lon="1.17718">
        <ele>114</ele>
        <time>2018-06-01T06:38:06Z</time>
      </trkpt>
      <trkpt lat="45.09434" lon="1.17689">
        <ele>113</ele>
        <time>2018-06-01T06:38:37Z</time>
      </trkpt>
      <trkpt lat="45.09393" lon="1.17658">
        <ele>112</ele>
        <time>2018-06-01T06:39:07Z</time>
      </trkpt>
      <trkpt lat="45.0935" lon="1.17627">
        <ele>109</ele>
        <time>2018-06-01T06:39:38Z</time>
      </trkpt>
      <trkpt lat="45.0934" lon="1.17616">
        <ele>110</ele>
        <time>2018-06-01T06:39:47Z</time>
      </trkpt>
      <trkpt lat="45.09337" lon="1.17612">
        <ele>109</ele>
        <time>2018-06-01T06:39:50Z</time>
      </trkpt>
      <trkpt lat="45.09337" lon="1.17611">
        <ele>105</ele>
        <time>2018-06-01T06:40:21Z</time>
      </trkpt>
      <trkpt lat="45.09338" lon="1.17611">
        <ele>102</ele>
        <time>2018-06-01T06:40:40Z</time>
      </trkpt>
      <trkpt lat="45.09324" lon="1.17607">
        <ele>101</ele>
        <time>2018-06-01T06:40:50Z</time>
      </trkpt>
      <trkpt lat="45.09315" lon="1.17609">
        <ele>101</ele>
        <time>2018-06-01T06:40:56Z</time>
      </trkpt>
      <trkpt lat="45.09263" lon="1.17653">
        <ele>101</ele>
        <time>2018-06-01T06:41:33Z</time>
      </trkpt>
      <trkpt lat="45.09227" lon="1.17693">
        <ele>104</ele>
        <time>2018-06-01T06:42:07Z</time>
      </trkpt>
      <trkpt lat="45.09195" lon="1.1773">
        <ele>106</ele>
        <time>2018-06-01T06:42:37Z</time>
      </trkpt>
      <trkpt lat="45.0916" lon="1.17762">
        <ele>111</ele>
        <time>2018-06-01T06:43:07Z</time>
      </trkpt>
      <trkpt lat="45.09121" lon="1.17805">
        <ele>112</ele>
        <time>2018-06-01T06:43:39Z</time>
      </trkpt>
      <trkpt lat="45.09117" lon="1.17809">
        <ele>112</ele>
        <time>2018-06-01T06:43:43Z</time>
      </trkpt>
      <trkpt lat="45.0911" lon="1.17817">
        <ele>113</ele>
        <time>2018-06-01T06:43:49Z</time>
      </trkpt>
      <trkpt lat="45.09099" lon="1.17828">
        <ele>112</ele>
        <time>2018-06-01T06:43:58Z</time>
      </trkpt>
      <trkpt lat="45.09092" lon="1.17836">
        <ele>111</ele>
        <time>2018-06-01T06:44:04Z</time>
      </trkpt>
      <trkpt lat="45.09057" lon="1.17878">
        <ele>105</ele>
        <time>2018-06-01T06:44:34Z</time>
      </trkpt>
      <trkpt lat="45.09021" lon="1.17916">
        <ele>107</ele>
        <time>2018-06-01T06:45:05Z</time>
      </trkpt>
      <trkpt lat="45.08985" lon="1.17957">
        <ele>114</ele>
        <time>2018-06-01T06:45:36Z</time>
      </trkpt>
      <trkpt lat="45.08959" lon="1.17985">
        <ele>116</ele>
        <time>2018-06-01T06:45:57Z</time>
      </trkpt>
      <trkpt lat="45.08915" lon="1.18033">
        <ele>119</ele>
        <time>2018-06-01T06:46:30Z</time>
      </trkpt>
      <trkpt lat="45.0891" lon="1.18033">
        <ele>115</ele>
        <time>2018-06-01T06:46:35Z</time>
      </trkpt>
      <trkpt lat="45.08869" lon="1.18064">
        <ele>114</ele>
        <time>2018-06-01T06:47:07Z</time>
      </trkpt>
      <trkpt lat="45.08862" lon="1.18072">
        <ele>116</ele>
        <time>2018-06-01T06:47:14Z</time>
      </trkpt>
      <trkpt lat="45.0883" lon="1.18116">
        <ele>113</ele>
        <time>2018-06-01T06:47:41Z</time>
      </trkpt>
      <trkpt lat="45.08801" lon="1.18168">
        <ele>115</ele>
        <time>2018-06-01T06:48:13Z</time>
      </trkpt>
      <trkpt lat="45.08778" lon="1.18211">
        <ele>120</ele>
        <time>2018-06-01T06:48:39Z</time>
      </trkpt>
      <trkpt lat="45.08748" lon="1.18258">
        <ele>121</ele>
        <time>2018-06-01T06:49:09Z</time>
      </trkpt>
      <trkpt lat="45.08715" lon="1.18309">
        <ele>120</ele>
        <time>2018-06-01T06:49:40Z</time>
      </trkpt>
      <trkpt lat="45.08683" lon="1.18359">
        <ele>119</ele>
        <time>2018-06-01T06:50:11Z</time>
      </trkpt>
      <trkpt lat="45.08653" lon="1.18407">
        <ele>119</ele>
        <time>2018-06-01T06:50:43Z</time>
      </trkpt>
      <trkpt lat="45.0865" lon="1.18412">
        <ele>119</ele>
        <time>2018-06-01T06:50:46Z</time>
      </trkpt>
      <trkpt lat="45.08649" lon="1.18418">
        <ele>119</ele>
        <time>2018-06-01T06:50:49Z</time>
      </trkpt>
      <trkpt lat="45.08643" lon="1.18436">
        <ele>119</ele>
        <time>2018-06-01T06:50:58Z</time>
      </trkpt>
      <trkpt lat="45.08631" lon="1.1851">
        <ele>123</ele>
        <time>2018-06-01T06:51:33Z</time>
      </trkpt>
      <trkpt lat="45.08634" lon="1.18515">
        <ele>128</ele>
        <time>2018-06-01T06:51:35Z</time>
      </trkpt>
      <trkpt lat="45.08635" lon="1.18523">
        <ele>131</ele>
        <time>2018-06-01T06:51:38Z</time>
      </trkpt>
      <trkpt lat="45.08631" lon="1.18537">
        <ele>131</ele>
        <time>2018-06-01T06:51:46Z</time>
      </trkpt>
      <trkpt lat="45.08622" lon="1.18559">
        <ele>121</ele>
        <time>2018-06-01T06:51:57Z</time>
      </trkpt>
      <trkpt lat="45.08611" lon="1.18575">
        <ele>115</ele>
        <time>2018-06-01T06:52:08Z</time>
      </trkpt>
      <trkpt lat="45.08606" lon="1.18583">
        <ele>113</ele>
        <time>2018-06-01T06:52:13Z</time>
      </trkpt>
      <trkpt lat="45.08601" lon="1.1859">
        <ele>110</ele>
        <time>2018-06-01T06:52:21Z</time>
      </trkpt>
      <trkpt lat="45.08594" lon="1.18595">
        <ele>110</ele>
        <time>2018-06-01T06:52:30Z</time>
      </trkpt>
      <trkpt lat="45.08567" lon="1.18605">
        <ele>109</ele>
        <time>2018-06-01T06:52:47Z</time>
      </trkpt>
      <trkpt lat="45.0855" lon="1.18607">
        <ele>106</ele>
        <time>2018-06-01T06:52:58Z</time>
      </trkpt>
      <trkpt lat="45.08533" lon="1.18609">
        <ele>102</ele>
        <time>2018-06-01T06:53:10Z</time>
      </trkpt>
      <trkpt lat="45.08526" lon="1.18614">
        <ele>100</ele>
        <time>2018-06-01T06:53:15Z</time>
      </trkpt>
      <trkpt lat="45.08519" lon="1.18619">
        <ele>100</ele>
        <time>2018-06-01T06:53:19Z</time>
      </trkpt>
      <trkpt lat="45.08506" lon="1.18648">
        <ele>102</ele>
        <time>2018-06-01T06:53:34Z</time>
      </trkpt>
      <trkpt lat="45.08507" lon="1.18655">
        <ele>101</ele>
        <time>2018-06-01T06:53:48Z</time>
      </trkpt>
      <trkpt lat="45.08509" lon="1.1866">
        <ele>102</ele>
        <time>2018-06-01T06:53:51Z</time>
      </trkpt>
      <trkpt lat="45.08513" lon="1.18665">
        <ele>101</ele>
        <time>2018-06-01T06:53:55Z</time>
      </trkpt>
      <trkpt lat="45.08518" lon="1.18666">
        <ele>101</ele>
        <time>2018-06-01T06:53:59Z</time>
      </trkpt>
      <trkpt lat="45.08523" lon="1.18664">
        <ele>101</ele>
        <time>2018-06-01T06:54:03Z</time>
      </trkpt>
      <trkpt lat="45.08526" lon="1.1866">
        <ele>99</ele>
        <time>2018-06-01T06:54:06Z</time>
      </trkpt>
      <trkpt lat="45.0853" lon="1.18656">
        <ele>98</ele>
        <time>2018-06-01T06:54:10Z</time>
      </trkpt>
      <trkpt lat="45.08538" lon="1.18662">
        <ele>96</ele>
        <time>2018-06-01T06:54:17Z</time>
      </trkpt>
      <trkpt lat="45.0854" lon="1.1867">
        <ele>95</ele>
        <time>2018-06-01T06:54:21Z</time>
      </trkpt>
      <trkpt lat="45.0854" lon="1.18706">
        <ele>91</ele>
        <time>2018-06-01T06:54:40Z</time>
      </trkpt>
      <trkpt lat="45.08541" lon="1.18713">
        <ele>89</ele>
        <time>2018-06-01T06:54:44Z</time>
      </trkpt>
      <trkpt lat="45.08549" lon="1.18728">
        <ele>90</ele>
        <time>2018-06-01T06:54:53Z</time>
      </trkpt>
      <trkpt lat="45.08557" lon="1.18736">
        <ele>90</ele>
        <time>2018-06-01T06:54:59Z</time>
      </trkpt>
      <trkpt lat="45.08561" lon="1.18742">
        <ele>90</ele>
        <time>2018-06-01T06:55:02Z</time>
      </trkpt>
      <trkpt lat="45.08576" lon="1.18752">
        <ele>87</ele>
        <time>2018-06-01T06:55:14Z</time>
      </trkpt>
      <trkpt lat="45.08585" lon="1.18767">
        <ele>86</ele>
        <time>2018-06-01T06:55:23Z</time>
      </trkpt>
      <trkpt lat="45.08587" lon="1.1878">
        <ele>84</ele>
        <time>2018-06-01T06:55:29Z</time>
      </trkpt>
      <trkpt lat="45.08581" lon="1.18827">
        <ele>80</ele>
        <time>2018-06-01T06:55:54Z</time>
      </trkpt>
      <trkpt lat="45.0858" lon="1.18833">
        <ele>80</ele>
        <time>2018-06-01T06:55:57Z</time>
      </trkpt>
      <trkpt lat="45.0858" lon="1.18841">
        <ele>80</ele>
        <time>2018-06-01T06:56:00Z</time>
      </trkpt>
      <trkpt lat="45.08564" lon="1.18921">
        <ele>81</ele>
        <time>2018-06-01T06:56:33Z</time>
      </trkpt>
      <trkpt lat="45.08566" lon="1.18934">
        <ele>87</ele>
        <time>2018-06-01T06:56:36Z</time>
      </trkpt>
      <trkpt lat="45.08571" lon="1.18943">
        <ele>86</ele>
        <time>2018-06-01T06:56:47Z</time>
      </trkpt>
      <trkpt lat="45.08569" lon="1.18951">
        <ele>87</ele>
        <time>2018-06-01T06:56:50Z</time>
      </trkpt>
      <trkpt lat="45.08569" lon="1.18959">
        <ele>90</ele>
        <time>2018-06-01T06:56:55Z</time>
      </trkpt>
      <trkpt lat="45.08567" lon="1.18968">
        <ele>155</ele>
        <time>2018-06-01T06:57:00Z</time>
      </trkpt>
      <trkpt lat="45.08565" lon="1.18975">
        <ele>173</ele>
        <time>2018-06-01T06:57:03Z</time>
      </trkpt>
      <trkpt lat="45.08559" lon="1.18987">
        <ele>139</ele>
        <time>2018-06-01T06:57:10Z</time>
      </trkpt>
      <trkpt lat="45.0855" lon="1.19041">
        <ele>92</ele>
        <time>2018-06-01T06:57:39Z</time>
      </trkpt>
      <trkpt lat="45.08548" lon="1.19054">
        <ele>106</ele>
        <time>2018-06-01T06:57:50Z</time>
      </trkpt>
      <trkpt lat="45.08547" lon="1.1906">
        <ele>106</ele>
        <time>2018-06-01T06:58:38Z</time>
      </trkpt>
      <trkpt lat="45.08545" lon="1.19069">
        <ele>106</ele>
        <time>2018-06-01T06:58:46Z</time>
      </trkpt>
      <trkpt lat="45.08542" lon="1.19075">
        <ele>88</ele>
        <time>2018-06-01T06:58:59Z</time>
      </trkpt>
      <trkpt lat="45.08538" lon="1.19099">
        <ele>87</ele>
        <time>2018-06-01T06:59:27Z</time>
      </trkpt>
      <trkpt lat="45.08537" lon="1.19113">
        <ele>79</ele>
        <time>2018-06-01T06:59:34Z</time>
      </trkpt>
      <trkpt lat="45.08535" lon="1.19121">
        <ele>104</ele>
        <time>2018-06-01T06:59:38Z</time>
      </trkpt>
      <trkpt lat="45.08534" lon="1.19126">
        <ele>99</ele>
        <time>2018-06-01T06:59:42Z</time>
      </trkpt>
      <trkpt lat="45.08533" lon="1.19134">
        <ele>81</ele>
        <time>2018-06-01T07:00:03Z</time>
      </trkpt>
      <trkpt lat="45.08532" lon="1.1914">
        <ele>80</ele>
        <time>2018-06-01T07:00:09Z</time>
      </trkpt>
      <trkpt lat="45.08528" lon="1.19142">
        <ele>79</ele>
        <time>2018-06-01T07:00:13Z</time>
      </trkpt>
      <trkpt lat="45.0852" lon="1.19153">
        <ele>78</ele>
        <time>2018-06-01T07:00:21Z</time>
      </trkpt>
      <trkpt lat="45.08516" lon="1.19156">
        <ele>81</ele>
        <time>2018-06-01T07:00:44Z</time>
      </trkpt>
      <trkpt lat="45.08511" lon="1.19159">
        <ele>81</ele>
        <time>2018-06-01T07:00:50Z</time>
      </trkpt>
      <trkpt lat="45.08503" lon="1.1916">
        <ele>81</ele>
        <time>2018-06-01T07:00:57Z</time>
      </trkpt>
      <trkpt lat="45.08449" lon="1.19163">
        <ele>91</ele>
        <time>2018-06-01T07:01:34Z</time>
      </trkpt>
      <trkpt lat="45.0844" lon="1.19155">
        <ele>90</ele>
        <time>2018-06-01T07:01:42Z</time>
      </trkpt>
      <trkpt lat="45.0841" lon="1.19152">
        <ele>81</ele>
        <time>2018-06-01T07:02:03Z</time>
      </trkpt>
      <trkpt lat="45.08395" lon="1.19152">
        <ele>81</ele>
        <time>2018-06-01T07:02:14Z</time>
      </trkpt>
      <trkpt lat="45.08373" lon="1.19147">
        <ele>82</ele>
        <time>2018-06-01T07:02:32Z</time>
      </trkpt>
      <trkpt lat="45.08369" lon="1.19145">
        <ele>81</ele>
        <time>2018-06-01T07:02:36Z</time>
      </trkpt>
      <trkpt lat="45.0836" lon="1.19142">
        <ele>80</ele>
        <time>2018-06-01T07:02:42Z</time>
      </trkpt>
      <trkpt lat="45.08356" lon="1.19139">
        <ele>81</ele>
        <time>2018-06-01T07:02:46Z</time>
      </trkpt>
      <trkpt lat="45.08311" lon="1.19122">
        <ele>82</ele>
        <time>2018-06-01T07:03:19Z</time>
      </trkpt>
      <trkpt lat="45.08303" lon="1.1912">
        <ele>81</ele>
        <time>2018-06-01T07:03:25Z</time>
      </trkpt>
      <trkpt lat="45.08267" lon="1.19105">
        <ele>81</ele>
        <time>2018-06-01T07:03:50Z</time>
      </trkpt>
      <trkpt lat="45.0826" lon="1.19099">
        <ele>82</ele>
        <time>2018-06-01T07:03:56Z</time>
      </trkpt>
      <trkpt lat="45.08254" lon="1.191">
        <ele>79</ele>
        <time>2018-06-01T07:04:01Z</time>
      </trkpt>
      <trkpt lat="45.08243" lon="1.19097">
        <ele>76</ele>
        <time>2018-06-01T07:04:08Z</time>
      </trkpt>
      <trkpt lat="45.08242" lon="1.1909">
        <ele>75</ele>
        <time>2018-06-01T07:04:12Z</time>
      </trkpt>
      <trkpt lat="45.08243" lon="1.19083">
        <ele>74</ele>
        <time>2018-06-01T07:04:16Z</time>
      </trkpt>
      <trkpt lat="45.08241" lon="1.19075">
        <ele>74</ele>
        <time>2018-06-01T07:04:19Z</time>
      </trkpt>
      <trkpt lat="45.08242" lon="1.19069">
        <ele>76</ele>
        <time>2018-06-01T07:04:23Z</time>
      </trkpt>
      <trkpt lat="45.08242" lon="1.19063">
        <ele>75</ele>
        <time>2018-06-01T07:04:26Z</time>
      </trkpt>
      <trkpt lat="45.08241" lon="1.19043">
        <ele>74</ele>
        <time>2018-06-01T07:04:37Z</time>
      </trkpt>
      <trkpt lat="45.08242" lon="1.19037">
        <ele>78</ele>
        <time>2018-06-01T07:05:17Z</time>
      </trkpt>
      <trkpt lat="45.08219" lon="1.1905">
        <ele>79</ele>
        <time>2018-06-01T07:06:34Z</time>
      </trkpt>
      <trkpt lat="45.08215" lon="1.19035">
        <ele>80</ele>
        <time>2018-06-01T07:06:40Z</time>
      </trkpt>
      <trkpt lat="45.08211" lon="1.19028">
        <ele>81</ele>
        <time>2018-06-01T07:06:49Z</time>
      </trkpt>
      <trkpt lat="45.08208" lon="1.19021">
        <ele>78</ele>
        <time>2018-06-01T07:06:56Z</time>
      </trkpt>
      <trkpt lat="45.08205" lon="1.19016">
        <ele>76</ele>
        <time>2018-06-01T07:07:39Z</time>
      </trkpt>
      <trkpt lat="45.08208" lon="1.19019">
        <ele>77</ele>
        <time>2018-06-01T07:08:46Z</time>
      </trkpt>
      <trkpt lat="45.08208" lon="1.19037">
        <ele>75</ele>
        <time>2018-06-01T07:08:56Z</time>
      </trkpt>
      <trkpt lat="45.08199" lon="1.19082">
        <ele>73</ele>
        <time>2018-06-01T07:09:22Z</time>
      </trkpt>
      <trkpt lat="45.08194" lon="1.19086">
        <ele>74</ele>
        <time>2018-06-01T07:09:28Z</time>
      </trkpt>
      <trkpt lat="45.08189" lon="1.19091">
        <ele>77</ele>
        <time>2018-06-01T07:09:33Z</time>
      </trkpt>
      <trkpt lat="45.08174" lon="1.1909">
        <ele>81</ele>
        <time>2018-06-01T07:09:46Z</time>
      </trkpt>
      <trkpt lat="45.0817" lon="1.19088">
        <ele>82</ele>
        <time>2018-06-01T07:09:49Z</time>
      </trkpt>
      <trkpt lat="45.08167" lon="1.19095">
        <ele>82</ele>
        <time>2018-06-01T07:09:53Z</time>
      </trkpt>
      <trkpt lat="45.08168" lon="1.19094">
        <ele>75</ele>
        <time>2018-06-01T07:11:00Z</time>
      </trkpt>
      <trkpt lat="45.08211" lon="1.19069">
        <ele>81</ele>
        <time>2018-06-01T07:11:36Z</time>
      </trkpt>
      <trkpt lat="45.08226" lon="1.19084">
        <ele>80</ele>
        <time>2018-06-01T07:11:43Z</time>
      </trkpt>
      <trkpt lat="45.08221" lon="1.19086">
        <ele>83</ele>
        <time>2018-06-01T07:12:15Z</time>
      </trkpt>
      <trkpt lat="45.08216" lon="1.19082">
        <ele>83</ele>
        <time>2018-06-01T07:12:33Z</time>
      </trkpt>
      <trkpt lat="45.08216" lon="1.19076">
        <ele>82</ele>
        <time>2018-06-01T07:12:39Z</time>
      </trkpt>
      <trkpt lat="45.08216" lon="1.1907">
        <ele>82</ele>
        <time>2018-06-01T07:12:43Z</time>
      </trkpt>
      <trkpt lat="45.08219" lon="1.19064">
        <ele>80</ele>
        <time>2018-06-01T07:13:43Z</time>
      </trkpt>
      <trkpt lat="45.08225" lon="1.19074">
        <ele>82</ele>
        <time>2018-06-01T07:14:00Z</time>
      </trkpt>
      <trkpt lat="45.08235" lon="1.1908">
        <ele>80</ele>
        <time>2018-06-01T07:14:08Z</time>
      </trkpt>
      <trkpt lat="45.08249" lon="1.19099">
        <ele>76</ele>
        <time>2018-06-01T07:14:25Z</time>
      </trkpt>
      <trkpt lat="45.08253" lon="1.19112">
        <ele>77</ele>
        <time>2018-06-01T07:14:32Z</time>
      </trkpt>
      <trkpt lat="45.08254" lon="1.19118">
        <ele>74</ele>
        <time>2018-06-01T07:14:38Z</time>
      </trkpt>
      <trkpt lat="45.08242" lon="1.19148">
        <ele>75</ele>
        <time>2018-06-01T07:14:55Z</time>
      </trkpt>
      <trkpt lat="45.08238" lon="1.19162">
        <ele>78</ele>
        <time>2018-06-01T07:15:01Z</time>
      </trkpt>
      <trkpt lat="45.08233" lon="1.19173">
        <ele>80</ele>
        <time>2018-06-01T07:15:09Z</time>
      </trkpt>
      <trkpt lat="45.0823" lon="1.1918">
        <ele>82</ele>
        <time>2018-06-01T07:15:12Z</time>
      </trkpt>
      <trkpt lat="45.08228" lon="1.19186">
        <ele>84</ele>
        <time>2018-06-01T07:15:15Z</time>
      </trkpt>
      <trkpt lat="45.08225" lon="1.19191">
        <ele>85</ele>
        <time>2018-06-01T07:15:19Z</time>
      </trkpt>
      <trkpt lat="45.08225" lon="1.19197">
        <ele>85</ele>
        <time>2018-06-01T07:15:24Z</time>
      </trkpt>
      <trkpt lat="45.08227" lon="1.19203">
        <ele>84</ele>
        <time>2018-06-01T07:15:36Z</time>
      </trkpt>
      <trkpt lat="45.08225" lon="1.19201">
        <ele>84</ele>
        <time>2018-06-01T07:25:02Z</time>
      </trkpt>
      <trkpt lat="45.08221" lon="1.19202">
        <ele>83</ele>
        <time>2018-06-01T07:25:09Z</time>
      </trkpt>
      <trkpt lat="45.0822" lon="1.19209">
        <ele>83</ele>
        <time>2018-06-01T07:25:13Z</time>
      </trkpt>
      <trkpt lat="45.08208" lon="1.19254">
        <ele>82</ele>
        <time>2018-06-01T07:25:39Z</time>
      </trkpt>
      <trkpt lat="45.08207" lon="1.19261">
        <ele>98</ele>
        <time>2018-06-01T07:25:43Z</time>
      </trkpt>
      <trkpt lat="45.08205" lon="1.19275">
        <ele>97</ele>
        <time>2018-06-01T07:25:49Z</time>
      </trkpt>
      <trkpt lat="45.08204" lon="1.19281">
        <ele>95</ele>
        <time>2018-06-01T07:25:54Z</time>
      </trkpt>
      <trkpt lat="45.08201" lon="1.19288">
        <ele>90</ele>
        <time>2018-06-01T07:25:58Z</time>
      </trkpt>
      <trkpt lat="45.08199" lon="1.19294">
        <ele>88</ele>
        <time>2018-06-01T07:26:01Z</time>
      </trkpt>
      <trkpt lat="45.082" lon="1.19301">
        <ele>86</ele>
        <time>2018-06-01T07:26:05Z</time>
      </trkpt>
      <trkpt lat="45.08211" lon="1.19283">
        <ele>82</ele>
        <time>2018-06-01T07:26:37Z</time>
      </trkpt>
      <trkpt lat="45.0821" lon="1.19294">
        <ele>81</ele>
        <time>2018-06-01T07:26:43Z</time>
      </trkpt>
      <trkpt lat="45.08207" lon="1.193">
        <ele>85</ele>
        <time>2018-06-01T07:27:00Z</time>
      </trkpt>
      <trkpt lat="45.0821" lon="1.19307">
        <ele>85</ele>
        <time>2018-06-01T07:27:03Z</time>
      </trkpt>
      <trkpt lat="45.08214" lon="1.19312">
        <ele>84</ele>
        <time>2018-06-01T07:27:07Z</time>
      </trkpt>
      <trkpt lat="45.08221" lon="1.19313">
        <ele>84</ele>
        <time>2018-06-01T07:27:13Z</time>
      </trkpt>
      <trkpt lat="45.0827" lon="1.19326">
        <ele>81</ele>
        <time>2018-06-01T07:27:46Z</time>
      </trkpt>
      <trkpt lat="45.08316" lon="1.19338">
        <ele>84</ele>
        <time>2018-06-01T07:28:18Z</time>
      </trkpt>
      <trkpt lat="45.08362" lon="1.19351">
        <ele>86</ele>
        <time>2018-06-01T07:28:48Z</time>
      </trkpt>
      <trkpt lat="45.0841" lon="1.19364">
        <ele>83</ele>
        <time>2018-06-01T07:29:19Z</time>
      </trkpt>
      <trkpt lat="45.08457" lon="1.19375">
        <ele>82</ele>
        <time>2018-06-01T07:29:49Z</time>
      </trkpt>
      <trkpt lat="45.08484" lon="1.19382">
        <ele>81</ele>
        <time>2018-06-01T07:30:07Z</time>
      </trkpt>
      <trkpt lat="45.08489" lon="1.19381">
        <ele>81</ele>
        <time>2018-06-01T07:30:10Z</time>
      </trkpt>
      <trkpt lat="45.08494" lon="1.19378">
        <ele>81</ele>
        <time>2018-06-01T07:30:14Z</time>
      </trkpt>
      <trkpt lat="45.08491" lon="1.19373">
        <ele>78</ele>
        <time>2018-06-01T07:30:18Z</time>
      </trkpt>
      <trkpt lat="45.08497" lon="1.19351">
        <ele>69</ele>
        <time>2018-06-01T07:30:30Z</time>
      </trkpt>
      <trkpt lat="45.08501" lon="1.19331">
        <ele>71</ele>
        <time>2018-06-01T07:30:40Z</time>
      </trkpt>
      <trkpt lat="45.08504" lon="1.19318">
        <ele>71</ele>
        <time>2018-06-01T07:30:47Z</time>
      </trkpt>
      <trkpt lat="45.0851" lon="1.19291">
        <ele>72</ele>
        <time>2018-06-01T07:31:00Z</time>
      </trkpt>
      <trkpt lat="45.08509" lon="1.19284">
        <ele>69</ele>
        <time>2018-06-01T07:31:03Z</time>
      </trkpt>
      <trkpt lat="45.0851" lon="1.19278">
        <ele>69</ele>
        <time>2018-06-01T07:31:06Z</time>
      </trkpt>
      <trkpt lat="45.08518" lon="1.19216">
        <ele>69</ele>
        <time>2018-06-01T07:31:40Z</time>
      </trkpt>
      <trkpt lat="45.08524" lon="1.19188">
        <ele>76</ele>
        <time>2018-06-01T07:31:47Z</time>
      </trkpt>
      <trkpt lat="45.08526" lon="1.19178">
        <ele>78</ele>
        <time>2018-06-01T07:31:53Z</time>
      </trkpt>
      <trkpt lat="45.08529" lon="1.19172">
        <ele>91</ele>
        <time>2018-06-01T07:31:58Z</time>
      </trkpt>
      <trkpt lat="45.08532" lon="1.19166">
        <ele>87</ele>
        <time>2018-06-01T07:32:02Z</time>
      </trkpt>
      <trkpt lat="45.08536" lon="1.19166">
        <ele>75</ele>
        <time>2018-06-01T07:32:54Z</time>
      </trkpt>
      <trkpt lat="45.08541" lon="1.19166">
        <ele>75</ele>
        <time>2018-06-01T07:33:00Z</time>
      </trkpt>
      <trkpt lat="45.08546" lon="1.19165">
        <ele>85</ele>
        <time>2018-06-01T07:33:04Z</time>
      </trkpt>
      <trkpt lat="45.08556" lon="1.19163">
        <ele>91</ele>
        <time>2018-06-01T07:33:10Z</time>
      </trkpt>
      <trkpt lat="45.08559" lon="1.1916">
        <ele>96</ele>
        <time>2018-06-01T07:33:14Z</time>
      </trkpt>
      <trkpt lat="45.08566" lon="1.19159">
        <ele>99</ele>
        <time>2018-06-01T07:33:19Z</time>
      </trkpt>
      <trkpt lat="45.08608" lon="1.19159">
        <ele>59</ele>
        <time>2018-06-01T07:33:49Z</time>
      </trkpt>
      <trkpt lat="45.08656" lon="1.19173">
        <ele>71</ele>
        <time>2018-06-01T07:34:21Z</time>
      </trkpt>
      <trkpt lat="45.08667" lon="1.19175">
        <ele>74</ele>
        <time>2018-06-01T07:34:30Z</time>
      </trkpt>
      <trkpt lat="45.08671" lon="1.19177">
        <ele>74</ele>
        <time>2018-06-01T07:34:33Z</time>
      </trkpt>
      <trkpt lat="45.08715" lon="1.19196">
        <ele>76</ele>
        <time>2018-06-01T07:35:03Z</time>
      </trkpt>
      <trkpt lat="45.08758" lon="1.19223">
        <ele>80</ele>
        <time>2018-06-01T07:35:34Z</time>
      </trkpt>
      <trkpt lat="45.08797" lon="1.19251">
        <ele>81</ele>
        <time>2018-06-01T07:36:06Z</time>
      </trkpt>
      <trkpt lat="45.08839" lon="1.19286">
        <ele>71</ele>
        <time>2018-06-01T07:36:38Z</time>
      </trkpt>
      <trkpt lat="45.08849" lon="1.19289">
        <ele>71</ele>
        <time>2018-06-01T07:36:48Z</time>
      </trkpt>
      <trkpt lat="45.08879" lon="1.19311">
        <ele>88</ele>
        <time>2018-06-01T07:37:15Z</time>
      </trkpt>
      <trkpt lat="45.08917" lon="1.19332">
        <ele>76</ele>
        <time>2018-06-01T07:37:47Z</time>
      </trkpt>
      <trkpt lat="45.08958" lon="1.19367">
        <ele>71</ele>
        <time>2018-06-01T07:38:20Z</time>
      </trkpt>
      <trkpt lat="45.08979" lon="1.19388">
        <ele>70</ele>
        <time>2018-06-01T07:38:38Z</time>
      </trkpt>
      <trkpt lat="45.08989" lon="1.19392">
        <ele>71</ele>
        <time>2018-06-01T07:38:45Z</time>
      </trkpt>
      <trkpt lat="45.09021" lon="1.19413">
        <ele>77</ele>
        <time>2018-06-01T07:39:08Z</time>
      </trkpt>
      <trkpt lat="45.09058" lon="1.19431">
        <ele>91</ele>
        <time>2018-06-01T07:39:37Z</time>
      </trkpt>
      <trkpt lat="45.0909" lon="1.19442">
        <ele>85</ele>
        <time>2018-06-01T07:40:02Z</time>
      </trkpt>
      <trkpt lat="45.09098" lon="1.19448">
        <ele>84</ele>
        <time>2018-06-01T07:40:08Z</time>
      </trkpt>
      <trkpt lat="45.09103" lon="1.1945">
        <ele>84</ele>
        <time>2018-06-01T07:40:12Z</time>
      </trkpt>
      <trkpt lat="45.09116" lon="1.19459">
        <ele>83</ele>
        <time>2018-06-01T07:40:22Z</time>
      </trkpt>
      <trkpt lat="45.09125" lon="1.19461">
        <ele>84</ele>
        <time>2018-06-01T07:40:29Z</time>
      </trkpt>
      <trkpt lat="45.0913" lon="1.19463">
        <ele>83</ele>
        <time>2018-06-01T07:40:32Z</time>
      </trkpt>
      <trkpt lat="45.09151" lon="1.19472">
        <ele>80</ele>
        <time>2018-06-01T07:40:49Z</time>
      </trkpt>
      <trkpt lat="45.0916" lon="1.19475">
        <ele>80</ele>
        <time>2018-06-01T07:40:55Z</time>
      </trkpt>
      <trkpt lat="45.0917" lon="1.19476">
        <ele>79</ele>
        <time>2018-06-01T07:41:03Z</time>
      </trkpt>
      <trkpt lat="45.09211" lon="1.19493">
        <ele>76</ele>
        <time>2018-06-01T07:41:39Z</time>
      </trkpt>
      <trkpt lat="45.09259" lon="1.19505">
        <ele>77</ele>
        <time>2018-06-01T07:42:12Z</time>
      </trkpt>
      <trkpt lat="45.09301" lon="1.19519">
        <ele>76</ele>
        <time>2018-06-01T07:42:43Z</time>
      </trkpt>
      <trkpt lat="45.09312" lon="1.19524">
        <ele>77</ele>
        <time>2018-06-01T07:42:51Z</time>
      </trkpt>
      <trkpt lat="45.09316" lon="1.19526">
        <ele>79</ele>
        <time>2018-06-01T07:43:28Z</time>
      </trkpt>
      <trkpt lat="45.09357" lon="1.19541">
        <ele>78</ele>
        <time>2018-06-01T07:43:58Z</time>
      </trkpt>
      <trkpt lat="45.09384" lon="1.19553">
        <ele>77</ele>
        <time>2018-06-01T07:44:18Z</time>
      </trkpt>
      <trkpt lat="45.09393" lon="1.19561">
        <ele>75</ele>
        <time>2018-06-01T07:44:26Z</time>
      </trkpt>
      <trkpt lat="45.09399" lon="1.1957">
        <ele>76</ele>
        <time>2018-06-01T07:44:32Z</time>
      </trkpt>
      <trkpt lat="45.09409" lon="1.19583">
        <ele>76</ele>
        <time>2018-06-01T07:44:41Z</time>
      </trkpt>
      <trkpt lat="45.09412" lon="1.19595">
        <ele>91</ele>
        <time>2018-06-01T07:44:47Z</time>
      </trkpt>
      <trkpt lat="45.09414" lon="1.19607">
        <ele>86</ele>
        <time>2018-06-01T07:44:53Z</time>
      </trkpt>
      <trkpt lat="45.09414" lon="1.19615">
        <ele>84</ele>
        <time>2018-06-01T07:44:57Z</time>
      </trkpt>
      <trkpt lat="45.09413" lon="1.19628">
        <ele>94</ele>
        <time>2018-06-01T07:45:03Z</time>
      </trkpt>
      <trkpt lat="45.09413" lon="1.19678">
        <ele>77</ele>
        <time>2018-06-01T07:45:30Z</time>
      </trkpt>
      <trkpt lat="45.09413" lon="1.19684">
        <ele>77</ele>
        <time>2018-06-01T07:45:34Z</time>
      </trkpt>
      <trkpt lat="45.09412" lon="1.19705">
        <ele>99</ele>
        <time>2018-06-01T07:45:45Z</time>
      </trkpt>
      <trkpt lat="45.09412" lon="1.1974">
        <ele>84</ele>
        <time>2018-06-01T07:46:02Z</time>
      </trkpt>
      <trkpt lat="45.09413" lon="1.19749">
        <ele>81</ele>
        <time>2018-06-01T07:46:07Z</time>
      </trkpt>
      <trkpt lat="45.09412" lon="1.19828">
        <ele>81</ele>
        <time>2018-06-01T07:46:43Z</time>
      </trkpt>
      <trkpt lat="45.0941" lon="1.19838">
        <ele>122</ele>
        <time>2018-06-01T07:46:50Z</time>
      </trkpt>
      <trkpt lat="45.09415" lon="1.19841">
        <ele>96</ele>
        <time>2018-06-01T07:47:40Z</time>
      </trkpt>
      <trkpt lat="45.09414" lon="1.19847">
        <ele>80</ele>
        <time>2018-06-01T07:48:04Z</time>
      </trkpt>
      <trkpt lat="45.0941" lon="1.19851">
        <ele>79</ele>
        <time>2018-06-01T07:48:13Z</time>
      </trkpt>
      <trkpt lat="45.09408" lon="1.19857">
        <ele>79</ele>
        <time>2018-06-01T07:48:17Z</time>
      </trkpt>
      <trkpt lat="45.09407" lon="1.19864">
        <ele>79</ele>
        <time>2018-06-01T07:48:21Z</time>
      </trkpt>
      <trkpt lat="45.09408" lon="1.1987">
        <ele>80</ele>
        <time>2018-06-01T07:48:24Z</time>
      </trkpt>
      <trkpt lat="45.09408" lon="1.19876">
        <ele>85</ele>
        <time>2018-06-01T07:48:27Z</time>
      </trkpt>
      <trkpt lat="45.09408" lon="1.19882">
        <ele>86</ele>
        <time>2018-06-01T07:48:31Z</time>
      </trkpt>
      <trkpt lat="45.09408" lon="1.199">
        <ele>90</ele>
        <time>2018-06-01T07:48:42Z</time>
      </trkpt>
      <trkpt lat="45.09404" lon="1.19936">
        <ele>94</ele>
        <time>2018-06-01T07:49:00Z</time>
      </trkpt>
      <trkpt lat="45.09399" lon="1.19941">
        <ele>93</ele>
        <time>2018-06-01T07:49:06Z</time>
      </trkpt>
      <trkpt lat="45.09402" lon="1.19947">
        <ele>91</ele>
        <time>2018-06-01T07:49:29Z</time>
      </trkpt>
      <trkpt lat="45.09404" lon="1.19953">
        <ele>114</ele>
        <time>2018-06-01T07:49:33Z</time>
      </trkpt>
      <trkpt lat="45.0941" lon="1.19966">
        <ele>103</ele>
        <time>2018-06-01T07:49:52Z</time>
      </trkpt>
      <trkpt lat="45.09411" lon="1.19959">
        <ele>89</ele>
        <time>2018-06-01T07:50:03Z</time>
      </trkpt>
      <trkpt lat="45.09404" lon="1.19959">
        <ele>84</ele>
        <time>2018-06-01T07:50:09Z</time>
      </trkpt>
      <trkpt lat="45.094" lon="1.19963">
        <ele>84</ele>
        <time>2018-06-01T07:50:13Z</time>
      </trkpt>
      <trkpt lat="45.09392" lon="1.1999">
        <ele>84</ele>
        <time>2018-06-01T07:51:42Z</time>
      </trkpt>
      <trkpt lat="45.09387" lon="1.20006">
        <ele>77</ele>
        <time>2018-06-01T07:51:49Z</time>
      </trkpt>
      <trkpt lat="45.09383" lon="1.20012">
        <ele>76</ele>
        <time>2018-06-01T07:51:53Z</time>
      </trkpt>
      <trkpt lat="45.09352" lon="1.20032">
        <ele>72</ele>
        <time>2018-06-01T07:52:17Z</time>
      </trkpt>
      <trkpt lat="45.09345" lon="1.20035">
        <ele>70</ele>
        <time>2018-06-01T07:52:23Z</time>
      </trkpt>
      <trkpt lat="45.09301" lon="1.20065">
        <ele>71</ele>
        <time>2018-06-01T07:52:55Z</time>
      </trkpt>
      <trkpt lat="45.09293" lon="1.20071">
        <ele>73</ele>
        <time>2018-06-01T07:53:03Z</time>
      </trkpt>
      <trkpt lat="45.09285" lon="1.20073">
        <ele>75</ele>
        <time>2018-06-01T07:53:10Z</time>
      </trkpt>
      <trkpt lat="45.09277" lon="1.2008">
        <ele>79</ele>
        <time>2018-06-01T07:53:15Z</time>
      </trkpt>
      <trkpt lat="45.09261" lon="1.20091">
        <ele>83</ele>
        <time>2018-06-01T07:53:24Z</time>
      </trkpt>
      <trkpt lat="45.09247" lon="1.20087">
        <ele>83</ele>
        <time>2018-06-01T07:53:33Z</time>
      </trkpt>
      <trkpt lat="45.0925" lon="1.20072">
        <ele>74</ele>
        <time>2018-06-01T07:53:35Z</time>
      </trkpt>
      <trkpt lat="45.09226" lon="1.20068">
        <ele>75</ele>
        <time>2018-06-01T07:53:52Z</time>
      </trkpt>
      <trkpt lat="45.09222" lon="1.20071">
        <ele>76</ele>
        <time>2018-06-01T07:53:55Z</time>
      </trkpt>
      <trkpt lat="45.09217" lon="1.20084">
        <ele>80</ele>
        <time>2018-06-01T07:54:04Z</time>
      </trkpt>
      <trkpt lat="45.0922" lon="1.20114">
        <ele>82</ele>
        <time>2018-06-01T07:54:17Z</time>
      </trkpt>
      <trkpt lat="45.09221" lon="1.20137">
        <ele>86</ele>
        <time>2018-06-01T07:54:28Z</time>
      </trkpt>
      <trkpt lat="45.09223" lon="1.20145">
        <ele>88</ele>
        <time>2018-06-01T07:54:32Z</time>
      </trkpt>
      <trkpt lat="45.09227" lon="1.20171">
        <ele>91</ele>
        <time>2018-06-01T07:54:46Z</time>
      </trkpt>
      <trkpt lat="45.09233" lon="1.20185">
        <ele>92</ele>
        <time>2018-06-01T07:54:53Z</time>
      </trkpt>
      <trkpt lat="45.09237" lon="1.20198">
        <ele>91</ele>
        <time>2018-06-01T07:55:01Z</time>
      </trkpt>
      <trkpt lat="45.09236" lon="1.20215">
        <ele>87</ele>
        <time>2018-06-01T07:55:09Z</time>
      </trkpt>
      <trkpt lat="45.09241" lon="1.20227">
        <ele>87</ele>
        <time>2018-06-01T07:55:16Z</time>
      </trkpt>
      <trkpt lat="45.09246" lon="1.20249">
        <ele>89</ele>
        <time>2018-06-01T07:55:27Z</time>
      </trkpt>
      <trkpt lat="45.09251" lon="1.20268">
        <ele>92</ele>
        <time>2018-06-01T07:55:34Z</time>
      </trkpt>
      <trkpt lat="45.09258" lon="1.20289">
        <ele>92</ele>
        <time>2018-06-01T07:55:43Z</time>
      </trkpt>
      <trkpt lat="45.09259" lon="1.20311">
        <ele>94</ele>
        <time>2018-06-01T07:55:54Z</time>
      </trkpt>
      <trkpt lat="45.09268" lon="1.20328">
        <ele>93</ele>
        <time>2018-06-01T07:56:03Z</time>
      </trkpt>
      <trkpt lat="45.09286" lon="1.20412">
        <ele>84</ele>
        <time>2018-06-01T07:56:41Z</time>
      </trkpt>
      <trkpt lat="45.09291" lon="1.20425">
        <ele>79</ele>
        <time>2018-06-01T07:56:50Z</time>
      </trkpt>
      <trkpt lat="45.09291" lon="1.20433">
        <ele>80</ele>
        <time>2018-06-01T07:56:53Z</time>
      </trkpt>
      <trkpt lat="45.09294" lon="1.20437">
        <ele>81</ele>
        <time>2018-06-01T07:56:57Z</time>
      </trkpt>
      <trkpt lat="45.09303" lon="1.20463">
        <ele>84</ele>
        <time>2018-06-01T07:57:14Z</time>
      </trkpt>
      <trkpt lat="45.09321" lon="1.20498">
        <ele>87</ele>
        <time>2018-06-01T07:57:32Z</time>
      </trkpt>
      <trkpt lat="45.09325" lon="1.20505">
        <ele>86</ele>
        <time>2018-06-01T07:57:36Z</time>
      </trkpt>
      <trkpt lat="45.09343" lon="1.20542">
        <ele>88</ele>
        <time>2018-06-01T07:57:56Z</time>
      </trkpt>
      <trkpt lat="45.0936" lon="1.20581">
        <ele>88</ele>
        <time>2018-06-01T07:59:02Z</time>
      </trkpt>
      <trkpt lat="45.09381" lon="1.20628">
        <ele>84</ele>
        <time>2018-06-01T07:59:35Z</time>
      </trkpt>
      <trkpt lat="45.09382" lon="1.20635">
        <ele>84</ele>
        <time>2018-06-01T07:59:39Z</time>
      </trkpt>
      <trkpt lat="45.09385" lon="1.2064">
        <ele>84</ele>
        <time>2018-06-01T07:59:43Z</time>
      </trkpt>
      <trkpt lat="45.09398" lon="1.2067">
        <ele>84</ele>
        <time>2018-06-01T08:00:03Z</time>
      </trkpt>
      <trkpt lat="45.09423" lon="1.20727">
        <ele>83</ele>
        <time>2018-06-01T08:00:35Z</time>
      </trkpt>
      <trkpt lat="45.09426" lon="1.20733">
        <ele>82</ele>
        <time>2018-06-01T08:00:39Z</time>
      </trkpt>
      <trkpt lat="45.09429" lon="1.20738">
        <ele>81</ele>
        <time>2018-06-01T08:00:42Z</time>
      </trkpt>
      <trkpt lat="45.09434" lon="1.20738">
        <ele>80</ele>
        <time>2018-06-01T08:00:45Z</time>
      </trkpt>
      <trkpt lat="45.09439" lon="1.20736">
        <ele>80</ele>
        <time>2018-06-01T08:00:49Z</time>
      </trkpt>
      <trkpt lat="45.09445" lon="1.20727">
        <ele>81</ele>
        <time>2018-06-01T08:00:56Z</time>
      </trkpt>
      <trkpt lat="45.09446" lon="1.2072">
        <ele>81</ele>
        <time>2018-06-01T08:01:01Z</time>
      </trkpt>
      <trkpt lat="45.09466" lon="1.20657">
        <ele>78</ele>
        <time>2018-06-01T08:01:42Z</time>
      </trkpt>
      <trkpt lat="45.09472" lon="1.2064">
        <ele>78</ele>
        <time>2018-06-01T08:01:51Z</time>
      </trkpt>
      <trkpt lat="45.09474" lon="1.20634">
        <ele>78</ele>
        <time>2018-06-01T08:01:54Z</time>
      </trkpt>
      <trkpt lat="45.09485" lon="1.20632">
        <ele>78</ele>
        <time>2018-06-01T08:02:01Z</time>
      </trkpt>
      <trkpt lat="45.09494" lon="1.20634">
        <ele>90</ele>
        <time>2018-06-01T08:02:08Z</time>
      </trkpt>
      <trkpt lat="45.09518" lon="1.20644">
        <ele>81</ele>
        <time>2018-06-01T08:02:25Z</time>
      </trkpt>
      <trkpt lat="45.0953" lon="1.20648">
        <ele>79</ele>
        <time>2018-06-01T08:02:33Z</time>
      </trkpt>
      <trkpt lat="45.09563" lon="1.20662">
        <ele>91</ele>
        <time>2018-06-01T08:02:56Z</time>
      </trkpt>
      <trkpt lat="45.09609" lon="1.2068">
        <ele>76</ele>
        <time>2018-06-01T08:03:27Z</time>
      </trkpt>
      <trkpt lat="45.09615" lon="1.20682">
        <ele>77</ele>
        <time>2018-06-01T08:03:32Z</time>
      </trkpt>
      <trkpt lat="45.09631" lon="1.20691">
        <ele>82</ele>
        <time>2018-06-01T08:03:47Z</time>
      </trkpt>
      <trkpt lat="45.09637" lon="1.20694">
        <ele>84</ele>
        <time>2018-06-01T08:03:56Z</time>
      </trkpt>
      <trkpt lat="45.0964" lon="1.20703">
        <ele>85</ele>
        <time>2018-06-01T08:03:59Z</time>
      </trkpt>
      <trkpt lat="45.0964" lon="1.20711">
        <ele>84</ele>
        <time>2018-06-01T08:04:04Z</time>
      </trkpt>
      <trkpt lat="45.09639" lon="1.2072">
        <ele>82</ele>
        <time>2018-06-01T08:04:11Z</time>
      </trkpt>
      <trkpt lat="45.09639" lon="1.20754">
        <ele>82</ele>
        <time>2018-06-01T08:04:32Z</time>
      </trkpt>
      <trkpt lat="45.09638" lon="1.20763">
        <ele>85</ele>
        <time>2018-06-01T08:04:38Z</time>
      </trkpt>
      <trkpt lat="45.09638" lon="1.20774">
        <ele>87</ele>
        <time>2018-06-01T08:04:43Z</time>
      </trkpt>
      <trkpt lat="45.09638" lon="1.20797">
        <ele>89</ele>
        <time>2018-06-01T08:04:55Z</time>
      </trkpt>
      <trkpt lat="45.09643" lon="1.20802">
        <ele>91</ele>
        <time>2018-06-01T08:05:00Z</time>
      </trkpt>
      <trkpt lat="45.09643" lon="1.20811">
        <ele>93</ele>
        <time>2018-06-01T08:05:08Z</time>
      </trkpt>
      <trkpt lat="45.09647" lon="1.20817">
        <ele>96</ele>
        <time>2018-06-01T08:05:17Z</time>
      </trkpt>
      <trkpt lat="45.09647" lon="1.20824">
        <ele>97</ele>
        <time>2018-06-01T08:05:22Z</time>
      </trkpt>
      <trkpt lat="45.0965" lon="1.20832">
        <ele>99</ele>
        <time>2018-06-01T08:05:31Z</time>
      </trkpt>
      <trkpt lat="45.0965" lon="1.20841">
        <ele>101</ele>
        <time>2018-06-01T08:05:35Z</time>
      </trkpt>
      <trkpt lat="45.09653" lon="1.20848">
        <ele>101</ele>
        <time>2018-06-01T08:05:42Z</time>
      </trkpt>
      <trkpt lat="45.09659" lon="1.20857">
        <ele>103</ele>
        <time>2018-06-01T08:05:53Z</time>
      </trkpt>
      <trkpt lat="45.09663" lon="1.20862">
        <ele>105</ele>
        <time>2018-06-01T08:05:59Z</time>
      </trkpt>
      <trkpt lat="45.09668" lon="1.20866">
        <ele>106</ele>
        <time>2018-06-01T08:06:07Z</time>
      </trkpt>
      <trkpt lat="45.09691" lon="1.209">
        <ele>106</ele>
        <time>2018-06-01T08:06:43Z</time>
      </trkpt>
      <trkpt lat="45.09696" lon="1.209">
        <ele>109</ele>
        <time>2018-06-01T08:06:59Z</time>
      </trkpt>
      <trkpt lat="45.097" lon="1.20897">
        <ele>111</ele>
        <time>2018-06-01T08:07:02Z</time>
      </trkpt>
      <trkpt lat="45.09704" lon="1.20898">
        <ele>112</ele>
        <time>2018-06-01T08:07:06Z</time>
      </trkpt>
      <trkpt lat="45.09723" lon="1.20892">
        <ele>115</ele>
        <time>2018-06-01T08:07:29Z</time>
      </trkpt>
      <trkpt lat="45.09739" lon="1.20881">
        <ele>119</ele>
        <time>2018-06-01T08:07:53Z</time>
      </trkpt>
      <trkpt lat="45.09767" lon="1.2087">
        <ele>124</ele>
        <time>2018-06-01T08:08:24Z</time>
      </trkpt>
      <trkpt lat="45.09792" lon="1.20858">
        <ele>126</ele>
        <time>2018-06-01T08:08:51Z</time>
      </trkpt>
      <trkpt lat="45.09795" lon="1.20855">
        <ele>126</ele>
        <time>2018-06-01T08:08:56Z</time>
      </trkpt>
      <trkpt lat="45.09829" lon="1.20834">
        <ele>128</ele>
        <time>2018-06-01T08:09:28Z</time>
      </trkpt>
      <trkpt lat="45.09843" lon="1.20824">
        <ele>129</ele>
        <time>2018-06-01T08:09:42Z</time>
      </trkpt>
      <trkpt lat="45.09848" lon="1.20822">
        <ele>130</ele>
        <time>2018-06-01T08:09:46Z</time>
      </trkpt>
      <trkpt lat="45.09864" lon="1.20811">
        <ele>130</ele>
        <time>2018-06-01T08:09:59Z</time>
      </trkpt>
      <trkpt lat="45.09869" lon="1.20808">
        <ele>139</ele>
        <time>2018-06-01T08:10:02Z</time>
      </trkpt>
      <trkpt lat="45.09873" lon="1.20805">
        <ele>146</ele>
        <time>2018-06-01T08:10:05Z</time>
      </trkpt>
      <trkpt lat="45.09885" lon="1.20797">
        <ele>139</ele>
        <time>2018-06-01T08:10:16Z</time>
      </trkpt>
      <trkpt lat="45.09927" lon="1.20766">
        <ele>136</ele>
        <time>2018-06-01T08:10:49Z</time>
      </trkpt>
      <trkpt lat="45.09949" lon="1.2075">
        <ele>138</ele>
        <time>2018-06-01T08:11:07Z</time>
      </trkpt>
      <trkpt lat="45.09992" lon="1.20734">
        <ele>143</ele>
        <time>2018-06-01T08:11:43Z</time>
      </trkpt>
      <trkpt lat="45.10022" lon="1.20706">
        <ele>143</ele>
        <time>2018-06-01T08:12:04Z</time>
      </trkpt>
      <trkpt lat="45.10034" lon="1.20698">
        <ele>141</ele>
        <time>2018-06-01T08:12:16Z</time>
      </trkpt>
      <trkpt lat="45.10053" lon="1.20687">
        <ele>139</ele>
        <time>2018-06-01T08:12:33Z</time>
      </trkpt>
      <trkpt lat="45.10075" lon="1.20673">
        <ele>141</ele>
        <time>2018-06-01T08:12:51Z</time>
      </trkpt>
      <trkpt lat="45.10084" lon="1.20664">
        <ele>143</ele>
        <time>2018-06-01T08:12:59Z</time>
      </trkpt>
      <trkpt lat="45.10122" lon="1.2064">
        <ele>148</ele>
        <time>2018-06-01T08:13:32Z</time>
      </trkpt>
      <trkpt lat="45.10156" lon="1.20616">
        <ele>151</ele>
        <time>2018-06-01T08:14:03Z</time>
      </trkpt>
      <trkpt lat="45.10193" lon="1.206">
        <ele>156</ele>
        <time>2018-06-01T08:14:34Z</time>
      </trkpt>
      <trkpt lat="45.10234" lon="1.20585">
        <ele>169</ele>
        <time>2018-06-01T08:15:07Z</time>
      </trkpt>
      <trkpt lat="45.10244" lon="1.20581">
        <ele>170</ele>
        <time>2018-06-01T08:15:14Z</time>
      </trkpt>
      <trkpt lat="45.10277" lon="1.20565">
        <ele>164</ele>
        <time>2018-06-01T08:15:40Z</time>
      </trkpt>
      <trkpt lat="45.10281" lon="1.20563">
        <ele>165</ele>
        <time>2018-06-01T08:15:44Z</time>
      </trkpt>
      <trkpt lat="45.10309" lon="1.20553">
        <ele>183</ele>
        <time>2018-06-01T08:16:05Z</time>
      </trkpt>
      <trkpt lat="45.10358" lon="1.20529">
        <ele>181</ele>
        <time>2018-06-01T08:16:43Z</time>
      </trkpt>
      <trkpt lat="45.1038" lon="1.20516">
        <ele>166</ele>
        <time>2018-06-01T08:17:03Z</time>
      </trkpt>
      <trkpt lat="45.10384" lon="1.20513">
        <ele>191</ele>
        <time>2018-06-01T08:17:06Z</time>
      </trkpt>
      <trkpt lat="45.10425" lon="1.20491">
        <ele>175</ele>
        <time>2018-06-01T08:17:38Z</time>
      </trkpt>
      <trkpt lat="45.10429" lon="1.20487">
        <ele>175</ele>
        <time>2018-06-01T08:17:42Z</time>
      </trkpt>
      <trkpt lat="45.10451" lon="1.20476">
        <ele>175</ele>
        <time>2018-06-01T08:18:02Z</time>
      </trkpt>
      <trkpt lat="45.10454" lon="1.20472">
        <ele>175</ele>
        <time>2018-06-01T08:18:05Z</time>
      </trkpt>
      <trkpt lat="45.10459" lon="1.20471">
        <ele>175</ele>
        <time>2018-06-01T08:18:08Z</time>
      </trkpt>
      <trkpt lat="45.10467" lon="1.20468">
        <ele>185</ele>
        <time>2018-06-01T08:18:15Z</time>
      </trkpt>
      <trkpt lat="45.10475" lon="1.20462">
        <ele>181</ele>
        <time>2018-06-01T08:18:22Z</time>
      </trkpt>
      <trkpt lat="45.1051" lon="1.2044">
        <ele>180</ele>
        <time>2018-06-01T08:18:50Z</time>
      </trkpt>
      <trkpt lat="45.10523" lon="1.20433">
        <ele>187</ele>
        <time>2018-06-01T08:19:01Z</time>
      </trkpt>
      <trkpt lat="45.1056" lon="1.20415">
        <ele>179</ele>
        <time>2018-06-01T08:19:31Z</time>
      </trkpt>
      <trkpt lat="45.106" lon="1.20394">
        <ele>178</ele>
        <time>2018-06-01T08:20:03Z</time>
      </trkpt>
      <trkpt lat="45.10633" lon="1.20374">
        <ele>184</ele>
        <time>2018-06-01T08:20:33Z</time>
      </trkpt>
      <trkpt lat="45.1067" lon="1.20356">
        <ele>186</ele>
        <time>2018-06-01T08:21:03Z</time>
      </trkpt>
      <trkpt lat="45.10679" lon="1.20352">
        <ele>195</ele>
        <time>2018-06-01T08:21:10Z</time>
      </trkpt>
      <trkpt lat="45.10719" lon="1.20333">
        <ele>175</ele>
        <time>2018-06-01T08:21:42Z</time>
      </trkpt>
      <trkpt lat="45.10733" lon="1.20318">
        <ele>181</ele>
        <time>2018-06-01T08:21:45Z</time>
      </trkpt>
      <trkpt lat="45.10759" lon="1.20304">
        <ele>205</ele>
        <time>2018-06-01T08:22:12Z</time>
      </trkpt>
      <trkpt lat="45.10797" lon="1.20284">
        <ele>190</ele>
        <time>2018-06-01T08:22:44Z</time>
      </trkpt>
      <trkpt lat="45.10834" lon="1.20263">
        <ele>190</ele>
        <time>2018-06-01T08:23:12Z</time>
      </trkpt>
      <trkpt lat="45.10857" lon="1.20252">
        <ele>190</ele>
        <time>2018-06-01T08:23:31Z</time>
      </trkpt>
      <trkpt lat="45.10862" lon="1.20249">
        <ele>189</ele>
        <time>2018-06-01T08:23:35Z</time>
      </trkpt>
      <trkpt lat="45.10875" lon="1.20243">
        <ele>203</ele>
        <time>2018-06-01T08:23:45Z</time>
      </trkpt>
      <trkpt lat="45.10915" lon="1.2022">
        <ele>191</ele>
        <time>2018-06-01T08:24:16Z</time>
      </trkpt>
      <trkpt lat="45.10956" lon="1.20195">
        <ele>192</ele>
        <time>2018-06-01T08:24:49Z</time>
      </trkpt>
      <trkpt lat="45.10995" lon="1.20172">
        <ele>193</ele>
        <time>2018-06-01T08:25:20Z</time>
      </trkpt>
      <trkpt lat="45.11013" lon="1.20162">
        <ele>195</ele>
        <time>2018-06-01T08:25:33Z</time>
      </trkpt>
      <trkpt lat="45.11027" lon="1.2016">
        <ele>195</ele>
        <time>2018-06-01T08:25:43Z</time>
      </trkpt>
      <trkpt lat="45.1105" lon="1.20168">
        <ele>197</ele>
        <time>2018-06-01T08:26:01Z</time>
      </trkpt>
      <trkpt lat="45.11059" lon="1.20167">
        <ele>197</ele>
        <time>2018-06-01T08:26:08Z</time>
      </trkpt>
      <trkpt lat="45.111" lon="1.20126">
        <ele>197</ele>
        <time>2018-06-01T08:26:44Z</time>
      </trkpt>
      <trkpt lat="45.11114" lon="1.20126">
        <ele>196</ele>
        <time>2018-06-01T08:26:55Z</time>
      </trkpt>
      <trkpt lat="45.11118" lon="1.20122">
        <ele>196</ele>
        <time>2018-06-01T08:26:59Z</time>
      </trkpt>
      <trkpt lat="45.11123" lon="1.20121">
        <ele>197</ele>
        <time>2018-06-01T08:27:13Z</time>
      </trkpt>
      <trkpt lat="45.11122" lon="1.20123">
        <ele>205</ele>
        <time>2018-06-01T08:29:12Z</time>
      </trkpt>
      <trkpt lat="45.11106" lon="1.20129">
        <ele>202</ele>
        <time>2018-06-01T08:29:26Z</time>
      </trkpt>
      <trkpt lat="45.11097" lon="1.20135">
        <ele>220</ele>
        <time>2018-06-01T08:29:33Z</time>
      </trkpt>
      <trkpt lat="45.11088" lon="1.20141">
        <ele>213</ele>
        <time>2018-06-01T08:29:40Z</time>
      </trkpt>
      <trkpt lat="45.11084" lon="1.20142">
        <ele>211</ele>
        <time>2018-06-01T08:29:43Z</time>
      </trkpt>
      <trkpt lat="45.11079" lon="1.20146">
        <ele>205</ele>
        <time>2018-06-01T08:29:47Z</time>
      </trkpt>
      <trkpt lat="45.11077" lon="1.20152">
        <ele>204</ele>
        <time>2018-06-01T08:29:51Z</time>
      </trkpt>
      <trkpt lat="45.11074" lon="1.20155">
        <ele>203</ele>
        <time>2018-06-01T08:29:58Z</time>
      </trkpt>
      <trkpt lat="45.11068" lon="1.20164">
        <ele>201</ele>
        <time>2018-06-01T08:30:08Z</time>
      </trkpt>
      <trkpt lat="45.11065" lon="1.20169">
        <ele>201</ele>
        <time>2018-06-01T08:30:15Z</time>
      </trkpt>
      <trkpt lat="45.11063" lon="1.20176">
        <ele>208</ele>
        <time>2018-06-01T08:30:20Z</time>
      </trkpt>
      <trkpt lat="45.1106" lon="1.20201">
        <ele>206</ele>
        <time>2018-06-01T08:30:33Z</time>
      </trkpt>
      <trkpt lat="45.11057" lon="1.20244">
        <ele>200</ele>
        <time>2018-06-01T08:30:58Z</time>
      </trkpt>
      <trkpt lat="45.11052" lon="1.20333">
        <ele>206</ele>
        <time>2018-06-01T08:31:50Z</time>
      </trkpt>
      <trkpt lat="45.11053" lon="1.20338">
        <ele>204</ele>
        <time>2018-06-01T08:32:01Z</time>
      </trkpt>
      <trkpt lat="45.11048" lon="1.2036">
        <ele>197</ele>
        <time>2018-06-01T08:32:17Z</time>
      </trkpt>
      <trkpt lat="45.11044" lon="1.20416">
        <ele>188</ele>
        <time>2018-06-01T08:32:50Z</time>
      </trkpt>
      <trkpt lat="45.11038" lon="1.20473">
        <ele>184</ele>
        <time>2018-06-01T08:33:21Z</time>
      </trkpt>
      <trkpt lat="45.11034" lon="1.20498">
        <ele>184</ele>
        <time>2018-06-01T08:33:32Z</time>
      </trkpt>
      <trkpt lat="45.11032" lon="1.20511">
        <ele>191</ele>
        <time>2018-06-01T08:33:40Z</time>
      </trkpt>
      <trkpt lat="45.11032" lon="1.20526">
        <ele>187</ele>
        <time>2018-06-01T08:33:48Z</time>
      </trkpt>
      <trkpt lat="45.11024" lon="1.20555">
        <ele>175</ele>
        <time>2018-06-01T08:34:08Z</time>
      </trkpt>
      <trkpt lat="45.11026" lon="1.2056">
        <ele>174</ele>
        <time>2018-06-01T08:34:11Z</time>
      </trkpt>
      <trkpt lat="45.11021" lon="1.20606">
        <ele>166</ele>
        <time>2018-06-01T08:34:37Z</time>
      </trkpt>
      <trkpt lat="45.11017" lon="1.20646">
        <ele>162</ele>
        <time>2018-06-01T08:34:57Z</time>
      </trkpt>
      <trkpt lat="45.11017" lon="1.20654">
        <ele>161</ele>
        <time>2018-06-01T08:35:02Z</time>
      </trkpt>
      <trkpt lat="45.11018" lon="1.20661">
        <ele>160</ele>
        <time>2018-06-01T08:35:08Z</time>
      </trkpt>
      <trkpt lat="45.11017" lon="1.20669">
        <ele>157</ele>
        <time>2018-06-01T08:35:12Z</time>
      </trkpt>
      <trkpt lat="45.11015" lon="1.20677">
        <ele>156</ele>
        <time>2018-06-01T08:35:15Z</time>
      </trkpt>
      <trkpt lat="45.11015" lon="1.20695">
        <ele>153</ele>
        <time>2018-06-01T08:35:28Z</time>
      </trkpt>
      <trkpt lat="45.11015" lon="1.20713">
        <ele>150</ele>
        <time>2018-06-01T08:35:40Z</time>
      </trkpt>
      <trkpt lat="45.11013" lon="1.20723">
        <ele>148</ele>
        <time>2018-06-01T08:35:47Z</time>
      </trkpt>
      <trkpt lat="45.11013" lon="1.2074">
        <ele>148</ele>
        <time>2018-06-01T08:35:56Z</time>
      </trkpt>
      <trkpt lat="45.11013" lon="1.2075">
        <ele>146</ele>
        <time>2018-06-01T08:36:02Z</time>
      </trkpt>
      <trkpt lat="45.1101" lon="1.20766">
        <ele>193</ele>
        <time>2018-06-01T08:36:10Z</time>
      </trkpt>
      <trkpt lat="45.11011" lon="1.20841">
        <ele>214</ele>
        <time>2018-06-01T08:36:53Z</time>
      </trkpt>
      <trkpt lat="45.11023" lon="1.20861">
        <ele>142</ele>
        <time>2018-06-01T08:37:23Z</time>
      </trkpt>
      <trkpt lat="45.11033" lon="1.20876">
        <ele>150</ele>
        <time>2018-06-01T08:37:35Z</time>
      </trkpt>
      <trkpt lat="45.11036" lon="1.20882">
        <ele>148</ele>
        <time>2018-06-01T08:37:39Z</time>
      </trkpt>
      <trkpt lat="45.11045" lon="1.2089">
        <ele>147</ele>
        <time>2018-06-01T08:37:48Z</time>
      </trkpt>
      <trkpt lat="45.11047" lon="1.20899">
        <ele>144</ele>
        <time>2018-06-01T08:37:53Z</time>
      </trkpt>
      <trkpt lat="45.11049" lon="1.20906">
        <ele>142</ele>
        <time>2018-06-01T08:38:00Z</time>
      </trkpt>
      <trkpt lat="45.1105" lon="1.20914">
        <ele>140</ele>
        <time>2018-06-01T08:38:04Z</time>
      </trkpt>
      <trkpt lat="45.11048" lon="1.20933">
        <ele>139</ele>
        <time>2018-06-01T08:38:22Z</time>
      </trkpt>
      <trkpt lat="45.11055" lon="1.20948">
        <ele>138</ele>
        <time>2018-06-01T08:38:32Z</time>
      </trkpt>
      <trkpt lat="45.11056" lon="1.20968">
        <ele>136</ele>
        <time>2018-06-01T08:38:44Z</time>
      </trkpt>
      <trkpt lat="45.11055" lon="1.20974">
        <ele>135</ele>
        <time>2018-06-01T08:38:48Z</time>
      </trkpt>
      <trkpt lat="45.11054" lon="1.20986">
        <ele>134</ele>
        <time>2018-06-01T08:38:53Z</time>
      </trkpt>
      <trkpt lat="45.11055" lon="1.20997">
        <ele>135</ele>
        <time>2018-06-01T08:38:59Z</time>
      </trkpt>
      <trkpt lat="45.11049" lon="1.21013">
        <ele>135</ele>
        <time>2018-06-01T08:39:08Z</time>
      </trkpt>
      <trkpt lat="45.11052" lon="1.21019">
        <ele>135</ele>
        <time>2018-06-01T08:39:14Z</time>
      </trkpt>
      <trkpt lat="45.11056" lon="1.21021">
        <ele>135</ele>
        <time>2018-06-01T08:39:18Z</time>
      </trkpt>
      <trkpt lat="45.11071" lon="1.21024">
        <ele>135</ele>
        <time>2018-06-01T08:39:40Z</time>
      </trkpt>
      <trkpt lat="45.11078" lon="1.21023">
        <ele>134</ele>
        <time>2018-06-01T08:39:45Z</time>
      </trkpt>
      <trkpt lat="45.1108" lon="1.21011">
        <ele>135</ele>
        <time>2018-06-01T08:39:56Z</time>
      </trkpt>
      <trkpt lat="45.11094" lon="1.20993">
        <ele>137</ele>
        <time>2018-06-01T08:40:20Z</time>
      </trkpt>
      <trkpt lat="45.11098" lon="1.2099">
        <ele>139</ele>
        <time>2018-06-01T08:40:32Z</time>
      </trkpt>
      <trkpt lat="45.11104" lon="1.20981">
        <ele>140</ele>
        <time>2018-06-01T08:40:51Z</time>
      </trkpt>
      <trkpt lat="45.11107" lon="1.20977">
        <ele>141</ele>
        <time>2018-06-01T08:41:01Z</time>
      </trkpt>
      <trkpt lat="45.1111" lon="1.20973">
        <ele>144</ele>
        <time>2018-06-01T08:41:10Z</time>
      </trkpt>
      <trkpt lat="45.11119" lon="1.20961">
        <ele>144</ele>
        <time>2018-06-01T08:41:49Z</time>
      </trkpt>
      <trkpt lat="45.11119" lon="1.20954">
        <ele>146</ele>
        <time>2018-06-01T08:41:52Z</time>
      </trkpt>
      <trkpt lat="45.11131" lon="1.20945">
        <ele>150</ele>
        <time>2018-06-01T08:42:11Z</time>
      </trkpt>
      <trkpt lat="45.11134" lon="1.20939">
        <ele>153</ele>
        <time>2018-06-01T08:42:16Z</time>
      </trkpt>
      <trkpt lat="45.11138" lon="1.20936">
        <ele>153</ele>
        <time>2018-06-01T08:42:23Z</time>
      </trkpt>
      <trkpt lat="45.11141" lon="1.2093">
        <ele>154</ele>
        <time>2018-06-01T08:42:30Z</time>
      </trkpt>
      <trkpt lat="45.11154" lon="1.20922">
        <ele>169</ele>
        <time>2018-06-01T08:42:49Z</time>
      </trkpt>
      <trkpt lat="45.11157" lon="1.20917">
        <ele>168</ele>
        <time>2018-06-01T08:42:56Z</time>
      </trkpt>
      <trkpt lat="45.11162" lon="1.20914">
        <ele>161</ele>
        <time>2018-06-01T08:43:02Z</time>
      </trkpt>
      <trkpt lat="45.11171" lon="1.20908">
        <ele>163</ele>
        <time>2018-06-01T08:43:11Z</time>
      </trkpt>
      <trkpt lat="45.11196" lon="1.20885">
        <ele>164</ele>
        <time>2018-06-01T08:43:38Z</time>
      </trkpt>
      <trkpt lat="45.11208" lon="1.20878">
        <ele>166</ele>
        <time>2018-06-01T08:43:50Z</time>
      </trkpt>
      <trkpt lat="45.11227" lon="1.20875">
        <ele>166</ele>
        <time>2018-06-01T08:44:08Z</time>
      </trkpt>
      <trkpt lat="45.11232" lon="1.20874">
        <ele>166</ele>
        <time>2018-06-01T08:44:12Z</time>
      </trkpt>
      <trkpt lat="45.11249" lon="1.20869">
        <ele>169</ele>
        <time>2018-06-01T08:44:28Z</time>
      </trkpt>
      <trkpt lat="45.11253" lon="1.20868">
        <ele>170</ele>
        <time>2018-06-01T08:44:34Z</time>
      </trkpt>
      <trkpt lat="45.11259" lon="1.20867">
        <ele>171</ele>
        <time>2018-06-01T08:44:39Z</time>
      </trkpt>
      <trkpt lat="45.11263" lon="1.20866">
        <ele>171</ele>
        <time>2018-06-01T08:44:43Z</time>
      </trkpt>
      <trkpt lat="45.11273" lon="1.20866">
        <ele>170</ele>
        <time>2018-06-01T08:44:52Z</time>
      </trkpt>
      <trkpt lat="45.11278" lon="1.20864">
        <ele>170</ele>
        <time>2018-06-01T08:44:56Z</time>
      </trkpt>
      <trkpt lat="45.11293" lon="1.20847">
        <ele>169</ele>
        <time>2018-06-01T08:45:12Z</time>
      </trkpt>
      <trkpt lat="45.11305" lon="1.20838">
        <ele>171</ele>
        <time>2018-06-01T08:45:24Z</time>
      </trkpt>
      <trkpt lat="45.11328" lon="1.20805">
        <ele>173</ele>
        <time>2018-06-01T08:45:55Z</time>
      </trkpt>
      <trkpt lat="45.11341" lon="1.20789">
        <ele>173</ele>
        <time>2018-06-01T08:46:10Z</time>
      </trkpt>
      <trkpt lat="45.11345" lon="1.20787">
        <ele>173</ele>
        <time>2018-06-01T08:46:14Z</time>
      </trkpt>
      <trkpt lat="45.11374" lon="1.20765">
        <ele>177</ele>
        <time>2018-06-01T08:46:46Z</time>
      </trkpt>
      <trkpt lat="45.11388" lon="1.20757">
        <ele>179</ele>
        <time>2018-06-01T08:47:00Z</time>
      </trkpt>
      <trkpt lat="45.11411" lon="1.20758">
        <ele>176</ele>
        <time>2018-06-01T08:47:39Z</time>
      </trkpt>
      <trkpt lat="45.11423" lon="1.20751">
        <ele>176</ele>
        <time>2018-06-01T08:47:53Z</time>
      </trkpt>
      <trkpt lat="45.11426" lon="1.20748">
        <ele>176</ele>
        <time>2018-06-01T08:47:57Z</time>
      </trkpt>
      <trkpt lat="45.11443" lon="1.20726">
        <ele>179</ele>
        <time>2018-06-01T08:48:17Z</time>
      </trkpt>
      <trkpt lat="45.1147" lon="1.20711">
        <ele>180</ele>
        <time>2018-06-01T08:48:52Z</time>
      </trkpt>
      <trkpt lat="45.11475" lon="1.2071">
        <ele>180</ele>
        <time>2018-06-01T08:48:56Z</time>
      </trkpt>
      <trkpt lat="45.11484" lon="1.20708">
        <ele>183</ele>
        <time>2018-06-01T08:49:06Z</time>
      </trkpt>
      <trkpt lat="45.1149" lon="1.20704">
        <ele>184</ele>
        <time>2018-06-01T08:49:13Z</time>
      </trkpt>
      <trkpt lat="45.11496" lon="1.20701">
        <ele>184</ele>
        <time>2018-06-01T08:49:17Z</time>
      </trkpt>
      <trkpt lat="45.115" lon="1.20704">
        <ele>184</ele>
        <time>2018-06-01T08:49:22Z</time>
      </trkpt>
      <trkpt lat="45.11514" lon="1.20706">
        <ele>181</ele>
        <time>2018-06-01T08:49:34Z</time>
      </trkpt>
      <trkpt lat="45.11523" lon="1.20709">
        <ele>180</ele>
        <time>2018-06-01T08:49:40Z</time>
      </trkpt>
      <trkpt lat="45.11555" lon="1.20713">
        <ele>200</ele>
        <time>2018-06-01T08:50:13Z</time>
      </trkpt>
      <trkpt lat="45.11591" lon="1.20724">
        <ele>194</ele>
        <time>2018-06-01T08:50:45Z</time>
      </trkpt>
      <trkpt lat="45.11622" lon="1.20738">
        <ele>195</ele>
        <time>2018-06-01T08:51:15Z</time>
      </trkpt>
      <trkpt lat="45.11647" lon="1.20752">
        <ele>199</ele>
        <time>2018-06-01T08:51:47Z</time>
      </trkpt>
      <trkpt lat="45.11652" lon="1.20756">
        <ele>198</ele>
        <time>2018-06-01T08:51:52Z</time>
      </trkpt>
      <trkpt lat="45.11678" lon="1.20767">
        <ele>194</ele>
        <time>2018-06-01T08:52:17Z</time>
      </trkpt>
      <trkpt lat="45.11687" lon="1.20771">
        <ele>195</ele>
        <time>2018-06-01T08:52:25Z</time>
      </trkpt>
      <trkpt lat="45.11692" lon="1.20774">
        <ele>197</ele>
        <time>2018-06-01T08:52:31Z</time>
      </trkpt>
      <trkpt lat="45.11707" lon="1.20773">
        <ele>201</ele>
        <time>2018-06-01T08:53:00Z</time>
      </trkpt>
      <trkpt lat="45.11716" lon="1.20773">
        <ele>198</ele>
        <time>2018-06-01T08:53:12Z</time>
      </trkpt>
      <trkpt lat="45.11749" lon="1.20768">
        <ele>199</ele>
        <time>2018-06-01T08:53:41Z</time>
      </trkpt>
      <trkpt lat="45.11778" lon="1.20766">
        <ele>201</ele>
        <time>2018-06-01T08:54:08Z</time>
      </trkpt>
      <trkpt lat="45.11783" lon="1.20765">
        <ele>201</ele>
        <time>2018-06-01T08:54:13Z</time>
      </trkpt>
      <trkpt lat="45.1182" lon="1.20765">
        <ele>204</ele>
        <time>2018-06-01T08:54:45Z</time>
      </trkpt>
      <trkpt lat="45.11825" lon="1.20764">
        <ele>203</ele>
        <time>2018-06-01T08:54:50Z</time>
      </trkpt>
      <trkpt lat="45.11829" lon="1.20763">
        <ele>203</ele>
        <time>2018-06-01T08:54:54Z</time>
      </trkpt>
      <trkpt lat="45.11865" lon="1.2076">
        <ele>212</ele>
        <time>2018-06-01T08:55:27Z</time>
      </trkpt>
      <trkpt lat="45.1187" lon="1.2076">
        <ele>210</ele>
        <time>2018-06-01T08:55:31Z</time>
      </trkpt>
      <trkpt lat="45.11878" lon="1.20761">
        <ele>209</ele>
        <time>2018-06-01T08:55:39Z</time>
      </trkpt>
      <trkpt lat="45.11891" lon="1.20758">
        <ele>209</ele>
        <time>2018-06-01T08:55:51Z</time>
      </trkpt>
      <trkpt lat="45.11898" lon="1.20749">
        <ele>206</ele>
        <time>2018-06-01T08:56:01Z</time>
      </trkpt>
      <trkpt lat="45.11926" lon="1.20804">
        <ele>209</ele>
        <time>2018-06-01T08:56:50Z</time>
      </trkpt>
      <trkpt lat="45.11923" lon="1.2081">
        <ele>210</ele>
        <time>2018-06-01T08:56:54Z</time>
      </trkpt>
      <trkpt lat="45.11932" lon="1.20833">
        <ele>208</ele>
        <time>2018-06-01T08:57:08Z</time>
      </trkpt>
      <trkpt lat="45.11935" lon="1.20844">
        <ele>210</ele>
        <time>2018-06-01T08:57:15Z</time>
      </trkpt>
      <trkpt lat="45.11939" lon="1.20856">
        <ele>209</ele>
        <time>2018-06-01T08:57:23Z</time>
      </trkpt>
      <trkpt lat="45.11961" lon="1.21085">
        <ele>264</ele>
        <time>2018-06-01T09:00:01Z</time>
      </trkpt>
      <trkpt lat="45.11957" lon="1.21086">
        <ele>246</ele>
        <time>2018-06-01T09:00:05Z</time>
      </trkpt>
      <trkpt lat="45.11951" lon="1.21104">
        <ele>216</ele>
        <time>2018-06-01T09:00:37Z</time>
      </trkpt>
      <trkpt lat="45.11951" lon="1.2111">
        <ele>237</ele>
        <time>2018-06-01T09:00:40Z</time>
      </trkpt>
      <trkpt lat="45.11949" lon="1.2113">
        <ele>222</ele>
        <time>2018-06-01T09:00:52Z</time>
      </trkpt>
      <trkpt lat="45.11959" lon="1.21215">
        <ele>264</ele>
        <time>2018-06-01T09:01:41Z</time>
      </trkpt>
      <trkpt lat="45.11956" lon="1.21244">
        <ele>252</ele>
        <time>2018-06-01T09:02:07Z</time>
      </trkpt>
      <trkpt lat="45.11962" lon="1.21245">
        <ele>233</ele>
        <time>2018-06-01T09:02:10Z</time>
      </trkpt>
      <trkpt lat="45.1196" lon="1.2125">
        <ele>232</ele>
        <time>2018-06-01T09:02:15Z</time>
      </trkpt>
      <trkpt lat="45.11959" lon="1.21257">
        <ele>231</ele>
        <time>2018-06-01T09:02:28Z</time>
      </trkpt>
      <trkpt lat="45.1196" lon="1.21284">
        <ele>230</ele>
        <time>2018-06-01T09:02:45Z</time>
      </trkpt>
      <trkpt lat="45.1196" lon="1.21335">
        <ele>224</ele>
        <time>2018-06-01T09:03:15Z</time>
      </trkpt>
      <trkpt lat="45.11961" lon="1.21356">
        <ele>223</ele>
        <time>2018-06-01T09:03:27Z</time>
      </trkpt>
      <trkpt lat="45.11959" lon="1.21519">
        <ele>206</ele>
        <time>2018-06-01T09:05:07Z</time>
      </trkpt>
      <trkpt lat="45.11974" lon="1.21519">
        <ele>207</ele>
        <time>2018-06-01T09:05:11Z</time>
      </trkpt>
      <trkpt lat="45.1198" lon="1.21524">
        <ele>207</ele>
        <time>2018-06-01T09:05:21Z</time>
      </trkpt>
      <trkpt lat="45.11983" lon="1.21532">
        <ele>208</ele>
        <time>2018-06-01T09:05:25Z</time>
      </trkpt>
      <trkpt lat="45.11983" lon="1.2154">
        <ele>207</ele>
        <time>2018-06-01T09:05:29Z</time>
      </trkpt>
      <trkpt lat="45.11986" lon="1.21547">
        <ele>208</ele>
        <time>2018-06-01T09:05:33Z</time>
      </trkpt>
      <trkpt lat="45.11989" lon="1.21553">
        <ele>210</ele>
        <time>2018-06-01T09:05:36Z</time>
      </trkpt>
      <trkpt lat="45.11989" lon="1.21566">
        <ele>211</ele>
        <time>2018-06-01T09:05:44Z</time>
      </trkpt>
      <trkpt lat="45.11991" lon="1.21562">
        <ele>212</ele>
        <time>2018-06-01T09:06:17Z</time>
      </trkpt>
      <trkpt lat="45.11992" lon="1.21555">
        <ele>213</ele>
        <time>2018-06-01T09:06:21Z</time>
      </trkpt>
      <trkpt lat="45.1199" lon="1.2155">
        <ele>213</ele>
        <time>2018-06-01T09:06:24Z</time>
      </trkpt>
      <trkpt lat="45.1199" lon="1.21544">
        <ele>213</ele>
        <time>2018-06-01T09:06:28Z</time>
      </trkpt>
      <trkpt lat="45.11995" lon="1.2154">
        <ele>213</ele>
        <time>2018-06-01T09:06:33Z</time>
      </trkpt>
      <trkpt lat="45.1218" lon="1.21466">
        <ele>452</ele>
        <time>2018-06-01T09:09:33Z</time>
      </trkpt>
      <trkpt lat="45.12154" lon="1.21443">
        <ele>363</ele>
        <time>2018-06-01T09:09:35Z</time>
      </trkpt>
      <trkpt lat="45.1216" lon="1.2145">
        <ele>222</ele>
        <time>2018-06-01T09:09:47Z</time>
      </trkpt>
      <trkpt lat="45.12168" lon="1.21456">
        <ele>216</ele>
        <time>2018-06-01T09:09:49Z</time>
      </trkpt>
      <trkpt lat="45.12177" lon="1.21454">
        <ele>204</ele>
        <time>2018-06-01T09:09:52Z</time>
      </trkpt>
      <trkpt lat="45.12198" lon="1.21452">
        <ele>222</ele>
        <time>2018-06-01T09:11:36Z</time>
      </trkpt>
      <trkpt lat="45.12218" lon="1.21457">
        <ele>263</ele>
        <time>2018-06-01T09:11:56Z</time>
      </trkpt>
      <trkpt lat="45.12232" lon="1.21476">
        <ele>235</ele>
        <time>2018-06-01T09:12:09Z</time>
      </trkpt>
      <trkpt lat="45.12251" lon="1.21482">
        <ele>200</ele>
        <time>2018-06-01T09:12:31Z</time>
      </trkpt>
      <trkpt lat="45.12266" lon="1.21496">
        <ele>188</ele>
        <time>2018-06-01T09:12:51Z</time>
      </trkpt>
      <trkpt lat="45.12297" lon="1.215">
        <ele>170</ele>
        <time>2018-06-01T09:13:19Z</time>
      </trkpt>
      <trkpt lat="45.12327" lon="1.21501">
        <ele>165</ele>
        <time>2018-06-01T09:13:45Z</time>
      </trkpt>
      <trkpt lat="45.1234" lon="1.21493">
        <ele>160</ele>
        <time>2018-06-01T09:13:59Z</time>
      </trkpt>
      <trkpt lat="45.12352" lon="1.21484">
        <ele>157</ele>
        <time>2018-06-01T09:14:11Z</time>
      </trkpt>
      <trkpt lat="45.12381" lon="1.21476">
        <ele>152</ele>
        <time>2018-06-01T09:14:37Z</time>
      </trkpt>
      <trkpt lat="45.12411" lon="1.21484">
        <ele>152</ele>
        <time>2018-06-01T09:15:15Z</time>
      </trkpt>
      <trkpt lat="45.12426" lon="1.21481">
        <ele>149</ele>
        <time>2018-06-01T09:15:22Z</time>
      </trkpt>
      <trkpt lat="45.12436" lon="1.21487">
        <ele>151</ele>
        <time>2018-06-01T09:15:31Z</time>
      </trkpt>
      <trkpt lat="45.12449" lon="1.21499">
        <ele>149</ele>
        <time>2018-06-01T09:15:45Z</time>
      </trkpt>
      <trkpt lat="45.12452" lon="1.21506">
        <ele>146</ele>
        <time>2018-06-01T09:15:53Z</time>
      </trkpt>
      <trkpt lat="45.12459" lon="1.2151">
        <ele>143</ele>
        <time>2018-06-01T09:16:04Z</time>
      </trkpt>
      <trkpt lat="45.12462" lon="1.21517">
        <ele>141</ele>
        <time>2018-06-01T09:16:09Z</time>
      </trkpt>
      <trkpt lat="45.12465" lon="1.21524">
        <ele>138</ele>
        <time>2018-06-01T09:16:13Z</time>
      </trkpt>
      <trkpt lat="45.1248" lon="1.21541">
        <ele>134</ele>
        <time>2018-06-01T09:16:29Z</time>
      </trkpt>
      <trkpt lat="45.12484" lon="1.21544">
        <ele>132</ele>
        <time>2018-06-01T09:16:32Z</time>
      </trkpt>
      <trkpt lat="45.12497" lon="1.21556">
        <ele>131</ele>
        <time>2018-06-01T09:16:45Z</time>
      </trkpt>
      <trkpt lat="45.12515" lon="1.21576">
        <ele>126</ele>
        <time>2018-06-01T09:17:02Z</time>
      </trkpt>
      <trkpt lat="45.12517" lon="1.21583">
        <ele>126</ele>
        <time>2018-06-01T09:17:07Z</time>
      </trkpt>
      <trkpt lat="45.12523" lon="1.21592">
        <ele>122</ele>
        <time>2018-06-01T09:17:15Z</time>
      </trkpt>
      <trkpt lat="45.12526" lon="1.21597">
        <ele>137</ele>
        <time>2018-06-01T09:17:19Z</time>
      </trkpt>
      <trkpt lat="45.12529" lon="1.21602">
        <ele>133</ele>
        <time>2018-06-01T09:17:23Z</time>
      </trkpt>
      <trkpt lat="45.12534" lon="1.21611">
        <ele>123</ele>
        <time>2018-06-01T09:17:30Z</time>
      </trkpt>
      <trkpt lat="45.12537" lon="1.21617">
        <ele>120</ele>
        <time>2018-06-01T09:17:34Z</time>
      </trkpt>
      <trkpt lat="45.12541" lon="1.2162">
        <ele>120</ele>
        <time>2018-06-01T09:17:37Z</time>
      </trkpt>
      <trkpt lat="45.12541" lon="1.21627">
        <ele>118</ele>
        <time>2018-06-01T09:17:40Z</time>
      </trkpt>
      <trkpt lat="45.12552" lon="1.21642">
        <ele>115</ele>
        <time>2018-06-01T09:17:52Z</time>
      </trkpt>
      <trkpt lat="45.12586" lon="1.21676">
        <ele>109</ele>
        <time>2018-06-01T09:18:24Z</time>
      </trkpt>
      <trkpt lat="45.12587" lon="1.21683">
        <ele>108</ele>
        <time>2018-06-01T09:18:29Z</time>
      </trkpt>
      <trkpt lat="45.12591" lon="1.21689">
        <ele>106</ele>
        <time>2018-06-01T09:18:34Z</time>
      </trkpt>
      <trkpt lat="45.12595" lon="1.21695">
        <ele>106</ele>
        <time>2018-06-01T09:18:45Z</time>
      </trkpt>
      <trkpt lat="45.12604" lon="1.21695">
        <ele>122</ele>
        <time>2018-06-01T09:21:07Z</time>
      </trkpt>
      <trkpt lat="45.12604" lon="1.21702">
        <ele>114</ele>
        <time>2018-06-01T09:22:28Z</time>
      </trkpt>
      <trkpt lat="45.12604" lon="1.21708">
        <ele>113</ele>
        <time>2018-06-01T09:22:33Z</time>
      </trkpt>
      <trkpt lat="45.12625" lon="1.21735">
        <ele>104</ele>
        <time>2018-06-01T09:22:57Z</time>
      </trkpt>
      <trkpt lat="45.12638" lon="1.21753">
        <ele>102</ele>
        <time>2018-06-01T09:23:10Z</time>
      </trkpt>
      <trkpt lat="45.12652" lon="1.2178">
        <ele>100</ele>
        <time>2018-06-01T09:23:28Z</time>
      </trkpt>
      <trkpt lat="45.12668" lon="1.21842">
        <ele>97</ele>
        <time>2018-06-01T09:23:59Z</time>
      </trkpt>
      <trkpt lat="45.1268" lon="1.21885">
        <ele>94</ele>
        <time>2018-06-01T09:24:20Z</time>
      </trkpt>
      <trkpt lat="45.12681" lon="1.2189">
        <ele>93</ele>
        <time>2018-06-01T09:24:24Z</time>
      </trkpt>
      <trkpt lat="45.12685" lon="1.21895">
        <ele>92</ele>
        <time>2018-06-01T09:24:28Z</time>
      </trkpt>
      <trkpt lat="45.12696" lon="1.21903">
        <ele>89</ele>
        <time>2018-06-01T09:24:35Z</time>
      </trkpt>
      <trkpt lat="45.127" lon="1.21907">
        <ele>89</ele>
        <time>2018-06-01T09:24:38Z</time>
      </trkpt>
      <trkpt lat="45.12707" lon="1.21972">
        <ele>87</ele>
        <time>2018-06-01T09:25:16Z</time>
      </trkpt>
      <trkpt lat="45.12725" lon="1.2202">
        <ele>87</ele>
        <time>2018-06-01T09:25:46Z</time>
      </trkpt>
      <trkpt lat="45.12741" lon="1.22065">
        <ele>88</ele>
        <time>2018-06-01T09:26:10Z</time>
      </trkpt>
      <trkpt lat="45.12742" lon="1.22072">
        <ele>88</ele>
        <time>2018-06-01T09:26:13Z</time>
      </trkpt>
      <trkpt lat="45.12748" lon="1.22089">
        <ele>86</ele>
        <time>2018-06-01T09:26:22Z</time>
      </trkpt>
      <trkpt lat="45.1276" lon="1.22124">
        <ele>87</ele>
        <time>2018-06-01T09:26:52Z</time>
      </trkpt>
      <trkpt lat="45.12771" lon="1.22172">
        <ele>86</ele>
        <time>2018-06-01T09:27:17Z</time>
      </trkpt>
      <trkpt lat="45.12773" lon="1.2218">
        <ele>86</ele>
        <time>2018-06-01T09:27:21Z</time>
      </trkpt>
      <trkpt lat="45.12792" lon="1.22239">
        <ele>87</ele>
        <time>2018-06-01T09:27:53Z</time>
      </trkpt>
      <trkpt lat="45.12799" lon="1.22264">
        <ele>86</ele>
        <time>2018-06-01T09:28:06Z</time>
      </trkpt>
      <trkpt lat="45.128" lon="1.22272">
        <ele>86</ele>
        <time>2018-06-01T09:28:10Z</time>
      </trkpt>
      <trkpt lat="45.12818" lon="1.22324">
        <ele>85</ele>
        <time>2018-06-01T09:28:37Z</time>
      </trkpt>
      <trkpt lat="45.1282" lon="1.22332">
        <ele>85</ele>
        <time>2018-06-01T09:28:41Z</time>
      </trkpt>
      <trkpt lat="45.12838" lon="1.22391">
        <ele>86</ele>
        <time>2018-06-01T09:29:11Z</time>
      </trkpt>
      <trkpt lat="45.1284" lon="1.22398">
        <ele>85</ele>
        <time>2018-06-01T09:29:15Z</time>
      </trkpt>
      <trkpt lat="45.1284" lon="1.22406">
        <ele>85</ele>
        <time>2018-06-01T09:29:19Z</time>
      </trkpt>
      <trkpt lat="45.12849" lon="1.22423">
        <ele>85</ele>
        <time>2018-06-01T09:29:28Z</time>
      </trkpt>
      <trkpt lat="45.12853" lon="1.22433">
        <ele>85</ele>
        <time>2018-06-01T09:29:34Z</time>
      </trkpt>
      <trkpt lat="45.12853" lon="1.22445">
        <ele>85</ele>
        <time>2018-06-01T09:29:39Z</time>
      </trkpt>
      <trkpt lat="45.12883" lon="1.22531">
        <ele>86</ele>
        <time>2018-06-01T09:30:22Z</time>
      </trkpt>
      <trkpt lat="45.12888" lon="1.22574">
        <ele>94</ele>
        <time>2018-06-01T09:30:48Z</time>
      </trkpt>
      <trkpt lat="45.12893" lon="1.22581">
        <ele>94</ele>
        <time>2018-06-01T09:30:55Z</time>
      </trkpt>
      <trkpt lat="45.12892" lon="1.22589">
        <ele>92</ele>
        <time>2018-06-01T09:30:59Z</time>
      </trkpt>
      <trkpt lat="45.12898" lon="1.22611">
        <ele>92</ele>
        <time>2018-06-01T09:31:14Z</time>
      </trkpt>
      <trkpt lat="45.12894" lon="1.2263">
        <ele>91</ele>
        <time>2018-06-01T09:31:37Z</time>
      </trkpt>
      <trkpt lat="45.12893" lon="1.22642">
        <ele>88</ele>
        <time>2018-06-01T09:31:46Z</time>
      </trkpt>
      <trkpt lat="45.1289" lon="1.22647">
        <ele>87</ele>
        <time>2018-06-01T09:31:52Z</time>
      </trkpt>
      <trkpt lat="45.12892" lon="1.22653">
        <ele>87</ele>
        <time>2018-06-01T09:31:58Z</time>
      </trkpt>
      <trkpt lat="45.12894" lon="1.22658">
        <ele>87</ele>
        <time>2018-06-01T09:32:02Z</time>
      </trkpt>
      <trkpt lat="45.12894" lon="1.22666">
        <ele>89</ele>
        <time>2018-06-01T09:32:11Z</time>
      </trkpt>
      <trkpt lat="45.12905" lon="1.22666">
        <ele>98</ele>
        <time>2018-06-01T09:34:20Z</time>
      </trkpt>
      <trkpt lat="45.12909" lon="1.22672">
        <ele>98</ele>
        <time>2018-06-01T09:34:28Z</time>
      </trkpt>
      <trkpt lat="45.12907" lon="1.22678">
        <ele>97</ele>
        <time>2018-06-01T09:34:35Z</time>
      </trkpt>
      <trkpt lat="45.12905" lon="1.22684">
        <ele>94</ele>
        <time>2018-06-01T09:34:41Z</time>
      </trkpt>
      <trkpt lat="45.12906" lon="1.2269">
        <ele>92</ele>
        <time>2018-06-01T09:34:48Z</time>
      </trkpt>
      <trkpt lat="45.12909" lon="1.22709">
        <ele>91</ele>
        <time>2018-06-01T09:35:04Z</time>
      </trkpt>
      <trkpt lat="45.12911" lon="1.22715">
        <ele>91</ele>
        <time>2018-06-01T09:35:09Z</time>
      </trkpt>
      <trkpt lat="45.12914" lon="1.2272">
        <ele>91</ele>
        <time>2018-06-01T09:35:13Z</time>
      </trkpt>
      <trkpt lat="45.12917" lon="1.22732">
        <ele>92</ele>
        <time>2018-06-01T09:35:21Z</time>
      </trkpt>
      <trkpt lat="45.12917" lon="1.22744">
        <ele>91</ele>
        <time>2018-06-01T09:35:31Z</time>
      </trkpt>
      <trkpt lat="45.12918" lon="1.22752">
        <ele>91</ele>
        <time>2018-06-01T09:35:36Z</time>
      </trkpt>
      <trkpt lat="45.12921" lon="1.22755">
        <ele>93</ele>
        <time>2018-06-01T09:35:44Z</time>
      </trkpt>
      <trkpt lat="45.12918" lon="1.22759">
        <ele>94</ele>
        <time>2018-06-01T09:40:27Z</time>
      </trkpt>
      <trkpt lat="45.12917" lon="1.22752">
        <ele>93</ele>
        <time>2018-06-01T09:44:31Z</time>
      </trkpt>
      <trkpt lat="45.12919" lon="1.22746">
        <ele>92</ele>
        <time>2018-06-01T09:44:35Z</time>
      </trkpt>
      <trkpt lat="45.12909" lon="1.22691">
        <ele>90</ele>
        <time>2018-06-01T09:45:07Z</time>
      </trkpt>
      <trkpt lat="45.12907" lon="1.22679">
        <ele>91</ele>
        <time>2018-06-01T09:45:14Z</time>
      </trkpt>
      <trkpt lat="45.12901" lon="1.22663">
        <ele>90</ele>
        <time>2018-06-01T09:45:27Z</time>
      </trkpt>
      <trkpt lat="45.12901" lon="1.22657">
        <ele>89</ele>
        <time>2018-06-01T09:45:31Z</time>
      </trkpt>
      <trkpt lat="45.12899" lon="1.22651">
        <ele>87</ele>
        <time>2018-06-01T09:45:36Z</time>
      </trkpt>
      <trkpt lat="45.12885" lon="1.22643">
        <ele>86</ele>
        <time>2018-06-01T09:45:49Z</time>
      </trkpt>
      <trkpt lat="45.12876" lon="1.22641">
        <ele>85</ele>
        <time>2018-06-01T09:45:57Z</time>
      </trkpt>
      <trkpt lat="45.12853" lon="1.22631">
        <ele>84</ele>
        <time>2018-06-01T09:46:16Z</time>
      </trkpt>
      <trkpt lat="45.12839" lon="1.22627">
        <ele>83</ele>
        <time>2018-06-01T09:46:28Z</time>
      </trkpt>
      <trkpt lat="45.12832" lon="1.22621">
        <ele>83</ele>
        <time>2018-06-01T09:46:33Z</time>
      </trkpt>
      <trkpt lat="45.12829" lon="1.22628">
        <ele>82</ele>
        <time>2018-06-01T09:46:37Z</time>
      </trkpt>
      <trkpt lat="45.12795" lon="1.22614">
        <ele>83</ele>
        <time>2018-06-01T09:47:04Z</time>
      </trkpt>
      <trkpt lat="45.12763" lon="1.22619">
        <ele>87</ele>
        <time>2018-06-01T09:47:27Z</time>
      </trkpt>
      <trkpt lat="45.12757" lon="1.2262">
        <ele>88</ele>
        <time>2018-06-01T09:47:30Z</time>
      </trkpt>
      <trkpt lat="45.12754" lon="1.22616">
        <ele>88</ele>
        <time>2018-06-01T09:47:33Z</time>
      </trkpt>
      <trkpt lat="45.12747" lon="1.22605">
        <ele>88</ele>
        <time>2018-06-01T09:47:41Z</time>
      </trkpt>
    </trkseg>
  </trk>
</gpx>